<?xml version='1.0' encoding='UTF-8'?><gpx version="1.1" creator="JPX - https://github.com/jenetics/jpx" xmlns="http://www.topografix.com/GPX/1/1"><trk><trkseg><trkpt lat="42.063404443010235" lon="14.78378160251341"><ele>2.0</ele><time>2026-04-04T13:46:58.001Z</time></trkpt><trkpt lat="42.06343670616998" lon="14.783694934091189"><ele>1.9999999999999998</ele><time>2026-04-04T13:47:03.001Z</time></trkpt><trkpt lat="42.06347190729879" lon="14.783612935317427"><ele>2.0</ele><time>2026-04-04T13:47:07.001Z</time></trkpt><trkpt lat="42.06350359747354" lon="14.783525201960515"><ele>2.0</ele><time>2026-04-04T13:47:11Z</time></trkpt><trkpt lat="42.063531649553475" lon="14.783441494936726"><ele>1.9999999999999998</ele><time>2026-04-04T13:47:15Z</time></trkpt><trkpt lat="42.06356459355266" lon="14.783364269112578"><ele>2.0</ele><time>2026-04-04T13:47:20Z</time></trkpt><trkpt lat="42.06359570158232" lon="14.783282419564454"><ele>2.0</ele><time>2026-04-04T13:47:24Z</time></trkpt><trkpt lat="42.0636276488243" lon="14.783179858338098"><ele>1.9999999999999998</ele><time>2026-04-04T13:47:29Z</time></trkpt><trkpt lat="42.0636730562069" lon="14.783081076258666"><ele>2.0</ele><time>2026-04-04T13:47:35Z</time></trkpt><trkpt lat="42.063687327292826" lon="14.782984009970981"><ele>2.0</ele><time>2026-04-04T13:47:40Z</time></trkpt><trkpt lat="42.06371092307827" lon="14.782877840728657"><ele>2.0</ele><time>2026-04-04T13:47:45Z</time></trkpt><trkpt lat="42.06375223366069" lon="14.782790902545946"><ele>1.9999999999999998</ele><time>2026-04-04T13:47:51.001Z</time></trkpt><trkpt lat="42.063795727523605" lon="14.782706491555508"><ele>2.0</ele><time>2026-04-04T13:47:56.001Z</time></trkpt><trkpt lat="42.06382666393977" lon="14.782619250252244"><ele>2.0</ele><time>2026-04-04T13:48:00.001Z</time></trkpt><trkpt lat="42.06389267443838" lon="14.782579303151268"><ele>1.9999999999999998</ele><time>2026-04-04T13:48:04.001Z</time></trkpt><trkpt lat="42.06394714975999" lon="14.782510614486867"><ele>2.0</ele><time>2026-04-04T13:48:09.001Z</time></trkpt><trkpt lat="42.06400781283166" lon="14.782455036435346"><ele>2.0</ele><time>2026-04-04T13:48:14.001Z</time></trkpt><trkpt lat="42.06408049979207" lon="14.782422452374885"><ele>1.9999999999999998</ele><time>2026-04-04T13:48:19.001Z</time></trkpt><trkpt lat="42.0641534760257" lon="14.782433819572079"><ele>2.0</ele><time>2026-04-04T13:48:24.001Z</time></trkpt><trkpt lat="42.06422068420634" lon="14.782460443911038"><ele>2.0</ele><time>2026-04-04T13:48:28.001Z</time></trkpt><trkpt lat="42.06428146249696" lon="14.782505249694896"><ele>2.142857142857143</ele><time>2026-04-04T13:48:31.001Z</time></trkpt><trkpt lat="42.064361464065456" lon="14.782485616518622"><ele>2.2857142857142856</ele><time>2026-04-04T13:48:34.001Z</time></trkpt><trkpt lat="42.06439827153053" lon="14.782395817504597"><ele>2.4285714285714284</ele><time>2026-04-04T13:48:37.001Z</time></trkpt><trkpt lat="42.06439000587262" lon="14.782307983152885"><ele>2.571428571428571</ele><time>2026-04-04T13:48:40.001Z</time></trkpt><trkpt lat="42.064329638928555" lon="14.782257444319024"><ele>2.7142857142857144</ele><time>2026-04-04T13:48:46.001Z</time></trkpt><trkpt lat="42.064261530003" lon="14.782243906545194"><ele>2.8571428571428568</ele><time>2026-04-04T13:48:52.001Z</time></trkpt><trkpt lat="42.06418696589859" lon="14.782213012791482"><ele>3.0</ele><time>2026-04-04T13:48:59Z</time></trkpt><trkpt lat="42.06412640371934" lon="14.78215818917142"><ele>2.9999999999999996</ele><time>2026-04-04T13:49:04Z</time></trkpt><trkpt lat="42.06408841377024" lon="14.782079714935856"><ele>3.0</ele><time>2026-04-04T13:49:09Z</time></trkpt><trkpt lat="42.064091039633" lon="14.781968901995727"><ele>3.0</ele><time>2026-04-04T13:49:14Z</time></trkpt><trkpt lat="42.06410430276586" lon="14.781873825625643"><ele>3.0</ele><time>2026-04-04T13:49:19Z</time></trkpt><trkpt lat="42.064137919213614" lon="14.781776181118769"><ele>3.0</ele><time>2026-04-04T13:49:24Z</time></trkpt><trkpt lat="42.064156757901316" lon="14.781689092256839"><ele>2.9999999999999996</ele><time>2026-04-04T13:49:29Z</time></trkpt><trkpt lat="42.064179063452556" lon="14.781592968208171"><ele>3.0</ele><time>2026-04-04T13:49:34Z</time></trkpt><trkpt lat="42.06419611401204" lon="14.78150262935799"><ele>2.9999999999999996</ele><time>2026-04-04T13:49:39Z</time></trkpt><trkpt lat="42.06422009650785" lon="14.781418955682637"><ele>3.0</ele><time>2026-04-04T13:49:44Z</time></trkpt><trkpt lat="42.06424823416006" lon="14.781326639345146"><ele>3.0</ele><time>2026-04-04T13:49:49Z</time></trkpt><trkpt lat="42.0642819440326" lon="14.781254232368802"><ele>3.0</ele><time>2026-04-04T13:49:54Z</time></trkpt><trkpt lat="42.06431407390294" lon="14.781165891035657"><ele>3.0</ele><time>2026-04-04T13:49:59.001Z</time></trkpt><trkpt lat="42.06435125460681" lon="14.781081229163828"><ele>2.9999999999999996</ele><time>2026-04-04T13:50:04.001Z</time></trkpt><trkpt lat="42.064386502640424" lon="14.780988678522228"><ele>3.0</ele><time>2026-04-04T13:50:09.001Z</time></trkpt><trkpt lat="42.06440887554504" lon="14.78090390400274"><ele>3.1666666666666665</ele><time>2026-04-04T13:50:13.001Z</time></trkpt><trkpt lat="42.06445028452943" lon="14.780831487877792"><ele>3.333333333333333</ele><time>2026-04-04T13:50:17.001Z</time></trkpt><trkpt lat="42.064483389670485" lon="14.780726615555443"><ele>3.5</ele><time>2026-04-04T13:50:20.001Z</time></trkpt><trkpt lat="42.0645291979928" lon="14.780605051508374"><ele>3.6666666666666665</ele><time>2026-04-04T13:50:23.001Z</time></trkpt><trkpt lat="42.0645672709152" lon="14.780514123171757"><ele>3.833333333333333</ele><time>2026-04-04T13:50:26.001Z</time></trkpt><trkpt lat="42.064614425821944" lon="14.780397479758848"><ele>4.0</ele><time>2026-04-04T13:50:29.001Z</time></trkpt><trkpt lat="42.06466957339778" lon="14.780290098909036"><ele>4.0</ele><time>2026-04-04T13:50:31.001Z</time></trkpt><trkpt lat="42.064698588890685" lon="14.78019475129941"><ele>3.9999999999999996</ele><time>2026-04-04T13:50:33.001Z</time></trkpt><trkpt lat="42.06474113262657" lon="14.780103566556079"><ele>4.0</ele><time>2026-04-04T13:50:35.001Z</time></trkpt><trkpt lat="42.06477375623983" lon="14.7800293469792"><ele>4.0</ele><time>2026-04-04T13:50:37.001Z</time></trkpt><trkpt lat="42.064808981930305" lon="14.779952505469701"><ele>3.9999999999999996</ele><time>2026-04-04T13:50:39.001Z</time></trkpt><trkpt lat="42.064842517414206" lon="14.779871395225983"><ele>4.0</ele><time>2026-04-04T13:50:41.001Z</time></trkpt><trkpt lat="42.06487925369221" lon="14.779790947879713"><ele>4.0</ele><time>2026-04-04T13:50:43.001Z</time></trkpt><trkpt lat="42.06490291122469" lon="14.7797114663125"><ele>3.833333333333333</ele><time>2026-04-04T13:50:45.001Z</time></trkpt><trkpt lat="42.06493237323835" lon="14.77962928807817"><ele>3.6666666666666665</ele><time>2026-04-04T13:50:47.001Z</time></trkpt><trkpt lat="42.064975484712946" lon="14.779542425607934"><ele>3.5</ele><time>2026-04-04T13:50:50.001Z</time></trkpt><trkpt lat="42.06501596328048" lon="14.779430917177638"><ele>3.333333333333333</ele><time>2026-04-04T13:50:53.001Z</time></trkpt><trkpt lat="42.06506345650117" lon="14.77932442936834"><ele>3.1666666666666665</ele><time>2026-04-04T13:50:56.001Z</time></trkpt><trkpt lat="42.06510818304594" lon="14.779226791584914"><ele>3.0</ele><time>2026-04-04T13:50:59.001Z</time></trkpt><trkpt lat="42.065155384328605" lon="14.779148205532655"><ele>2.8333333333333335</ele><time>2026-04-04T13:51:02Z</time></trkpt><trkpt lat="42.06517977538925" lon="14.779046629838678"><ele>2.6666666666666665</ele><time>2026-04-04T13:51:05Z</time></trkpt><trkpt lat="42.065209819274756" lon="14.778951506043386"><ele>2.5</ele><time>2026-04-04T13:51:10Z</time></trkpt><trkpt lat="42.06525748588585" lon="14.778869051777665"><ele>2.333333333333333</ele><time>2026-04-04T13:51:46Z</time></trkpt><trkpt lat="42.06528584158994" lon="14.778769186523151"><ele>2.1666666666666665</ele><time>2026-04-04T13:51:51Z</time></trkpt><trkpt lat="42.06531652304029" lon="14.778674113255299"><ele>2.0</ele><time>2026-04-04T13:51:56Z</time></trkpt><trkpt lat="42.06534336035598" lon="14.778597254834937"><ele>2.142857142857143</ele><time>2026-04-04T13:52:00Z</time></trkpt><trkpt lat="42.06537819499184" lon="14.778512210385639"><ele>2.2857142857142856</ele><time>2026-04-04T13:52:05.001Z</time></trkpt><trkpt lat="42.06542111882812" lon="14.77844257131521"><ele>2.4285714285714284</ele><time>2026-04-04T13:52:10.001Z</time></trkpt><trkpt lat="42.06544168157891" lon="14.778357361563986"><ele>2.571428571428571</ele><time>2026-04-04T13:52:15.001Z</time></trkpt><trkpt lat="42.06547627698666" lon="14.778264263117345"><ele>2.7142857142857144</ele><time>2026-04-04T13:52:20.001Z</time></trkpt><trkpt lat="42.06550229992687" lon="14.77818468356578"><ele>2.8571428571428568</ele><time>2026-04-04T13:52:25.001Z</time></trkpt><trkpt lat="42.065527115655385" lon="14.77809263684816"><ele>3.0</ele><time>2026-04-04T13:52:30.001Z</time></trkpt><trkpt lat="42.06556739967196" lon="14.778023803702983"><ele>2.9999999999999996</ele><time>2026-04-04T13:52:36.001Z</time></trkpt><trkpt lat="42.065600162093105" lon="14.777949312557148"><ele>3.0</ele><time>2026-04-04T13:52:41.001Z</time></trkpt><trkpt lat="42.06563736984226" lon="14.777872119359502"><ele>3.0</ele><time>2026-04-04T13:52:47.001Z</time></trkpt><trkpt lat="42.06567829235614" lon="14.777789313641032"><ele>3.0</ele><time>2026-04-04T13:53:01.001Z</time></trkpt><trkpt lat="42.06570176645587" lon="14.777698453202488"><ele>3.0</ele><time>2026-04-04T13:53:06.001Z</time></trkpt><trkpt lat="42.065726480251925" lon="14.777614427462328"><ele>2.9999999999999996</ele><time>2026-04-04T13:53:10Z</time></trkpt><trkpt lat="42.06576175342966" lon="14.777521150251458"><ele>3.0</ele><time>2026-04-04T13:53:16Z</time></trkpt><trkpt lat="42.065793652523716" lon="14.777443888868346"><ele>2.8571428571428568</ele><time>2026-04-04T13:53:21Z</time></trkpt><trkpt lat="42.06582379708573" lon="14.777358069965873"><ele>2.7142857142857144</ele><time>2026-04-04T13:53:28Z</time></trkpt><trkpt lat="42.06585960701747" lon="14.777287627881888"><ele>2.571428571428571</ele><time>2026-04-04T13:53:34Z</time></trkpt><trkpt lat="42.065896200215015" lon="14.77720593786708"><ele>2.4285714285714284</ele><time>2026-04-04T13:53:40Z</time></trkpt><trkpt lat="42.06593635439589" lon="14.777119652657394"><ele>2.2857142857142856</ele><time>2026-04-04T13:53:46Z</time></trkpt><trkpt lat="42.06595990797272" lon="14.77703234999076"><ele>2.142857142857143</ele><time>2026-04-04T13:53:51Z</time></trkpt><trkpt lat="42.065984222007756" lon="14.776945798475381"><ele>2.0</ele><time>2026-04-04T13:53:56Z</time></trkpt><trkpt lat="42.06601713121915" lon="14.77687068193077"><ele>2.142857142857143</ele><time>2026-04-04T13:54:01Z</time></trkpt><trkpt lat="42.06604461624318" lon="14.776790382177058"><ele>2.2857142857142856</ele><time>2026-04-04T13:54:06Z</time></trkpt><trkpt lat="42.066074566430885" lon="14.776714883619029"><ele>2.4285714285714284</ele><time>2026-04-04T13:54:11Z</time></trkpt><trkpt lat="42.06610150628918" lon="14.776628409149483"><ele>2.571428571428571</ele><time>2026-04-04T13:54:16Z</time></trkpt><trkpt lat="42.06613143450584" lon="14.776551264942746"><ele>2.7142857142857144</ele><time>2026-04-04T13:54:21Z</time></trkpt><trkpt lat="42.06616544472305" lon="14.776478027174209"><ele>2.8571428571428568</ele><time>2026-04-04T13:54:26.001Z</time></trkpt><trkpt lat="42.06620140049152" lon="14.776396563026543"><ele>3.0</ele><time>2026-04-04T13:54:31.001Z</time></trkpt><trkpt lat="42.06622734215503" lon="14.77631923193674"><ele>2.9999999999999996</ele><time>2026-04-04T13:54:36.001Z</time></trkpt><trkpt lat="42.06626302023369" lon="14.776237720611435"><ele>3.0</ele><time>2026-04-04T13:54:41.001Z</time></trkpt><trkpt lat="42.06630537840879" lon="14.776150154743695"><ele>3.0</ele><time>2026-04-04T13:54:46.001Z</time></trkpt><trkpt lat="42.06634220335463" lon="14.776064755572426"><ele>3.0</ele><time>2026-04-04T13:54:51.001Z</time></trkpt><trkpt lat="42.066375696176145" lon="14.775973821538514"><ele>3.0</ele><time>2026-04-04T13:54:56.001Z</time></trkpt><trkpt lat="42.066417468900795" lon="14.775890041835783"><ele>2.9999999999999996</ele><time>2026-04-04T13:55:02.001Z</time></trkpt><trkpt lat="42.066445616666805" lon="14.775806802635053"><ele>3.0</ele><time>2026-04-04T13:55:07.001Z</time></trkpt><trkpt lat="42.066478606301196" lon="14.77572655603203"><ele>2.8571428571428568</ele><time>2026-04-04T13:55:12.001Z</time></trkpt><trkpt lat="42.06650414067977" lon="14.775646191459781"><ele>2.7142857142857144</ele><time>2026-04-04T13:55:17Z</time></trkpt><trkpt lat="42.06652758446153" lon="14.775553491503429"><ele>2.571428571428571</ele><time>2026-04-04T13:55:22Z</time></trkpt><trkpt lat="42.06657137534571" lon="14.775478325568075"><ele>2.4285714285714284</ele><time>2026-04-04T13:55:27Z</time></trkpt><trkpt lat="42.066614400388666" lon="14.775396769405162"><ele>2.2857142857142856</ele><time>2026-04-04T13:55:32Z</time></trkpt><trkpt lat="42.066683245326516" lon="14.775362638742047"><ele>2.142857142857143</ele><time>2026-04-04T13:55:37Z</time></trkpt><trkpt lat="42.06675475301885" lon="14.775331341197209"><ele>2.0</ele><time>2026-04-04T13:55:42Z</time></trkpt><trkpt lat="42.06682834940632" lon="14.775332629233143"><ele>2.2857142857142856</ele><time>2026-04-04T13:55:47Z</time></trkpt><trkpt lat="42.066896500179745" lon="14.775367548701476"><ele>2.571428571428571</ele><time>2026-04-04T13:55:52Z</time></trkpt><trkpt lat="42.06696391274505" lon="14.775408204118001"><ele>2.8571428571428568</ele><time>2026-04-04T13:55:57Z</time></trkpt><trkpt lat="42.06702553936753" lon="14.775467464010866"><ele>3.142857142857143</ele><time>2026-04-04T13:56:02Z</time></trkpt><trkpt lat="42.06709470972331" lon="14.775515815431419"><ele>3.428571428571428</ele><time>2026-04-04T13:56:07Z</time></trkpt><trkpt lat="42.067154485893695" lon="14.775546560673812"><ele>3.714285714285714</ele><time>2026-04-04T13:56:11Z</time></trkpt><trkpt lat="42.06722109928291" lon="14.775596583599826"><ele>4.0</ele><time>2026-04-04T13:56:16Z</time></trkpt><trkpt lat="42.067288205689245" lon="14.775643779790038"><ele>4.0</ele><time>2026-04-04T13:56:21Z</time></trkpt><trkpt lat="42.06736129827088" lon="14.77567453327416"><ele>3.9999999999999996</ele><time>2026-04-04T13:56:26.001Z</time></trkpt><trkpt lat="42.0674331448579" lon="14.775725134381128"><ele>4.0</ele><time>2026-04-04T13:56:31.001Z</time></trkpt><trkpt lat="42.06749112242658" lon="14.775794862098126"><ele>4.0</ele><time>2026-04-04T13:56:36.001Z</time></trkpt><trkpt lat="42.06755288902155" lon="14.775841581994694"><ele>3.9999999999999996</ele><time>2026-04-04T13:56:40.001Z</time></trkpt><trkpt lat="42.06761150787214" lon="14.77587611321908"><ele>4.0</ele><time>2026-04-04T13:56:44.001Z</time></trkpt><trkpt lat="42.06766396100543" lon="14.775924201145221"><ele>4.0</ele><time>2026-04-04T13:56:48.001Z</time></trkpt><trkpt lat="42.06771499790997" lon="14.776018122549598"><ele>4.142857142857142</ele><time>2026-04-04T13:56:52.001Z</time></trkpt><trkpt lat="42.067776949078436" lon="14.776090536825444"><ele>4.285714285714286</ele><time>2026-04-04T13:56:55.001Z</time></trkpt><trkpt lat="42.06784214334196" lon="14.776117813634123"><ele>4.428571428571429</ele><time>2026-04-04T13:56:57.001Z</time></trkpt><trkpt lat="42.067903209567994" lon="14.77616001472605"><ele>4.571428571428571</ele><time>2026-04-04T13:56:59.001Z</time></trkpt><trkpt lat="42.067986451572025" lon="14.776222367639827"><ele>4.714285714285714</ele><time>2026-04-04T13:57:01.001Z</time></trkpt><trkpt lat="42.06804780494038" lon="14.776257594700594"><ele>4.857142857142857</ele><time>2026-04-04T13:57:03.001Z</time></trkpt><trkpt lat="42.068108383026605" lon="14.776299828786321"><ele>5.0</ele><time>2026-04-04T13:57:05.001Z</time></trkpt><trkpt lat="42.06817656412538" lon="14.776341068718324"><ele>5.0</ele><time>2026-04-04T13:57:07.001Z</time></trkpt><trkpt lat="42.06824861327193" lon="14.77637631869238"><ele>5.0</ele><time>2026-04-04T13:57:09.001Z</time></trkpt><trkpt lat="42.06833565604483" lon="14.776422275380884"><ele>5.0</ele><time>2026-04-04T13:57:11.001Z</time></trkpt><trkpt lat="42.06841344985857" lon="14.776496143907876"><ele>5.0</ele><time>2026-04-04T13:57:14.001Z</time></trkpt><trkpt lat="42.068471421705574" lon="14.776533723937726"><ele>5.0</ele><time>2026-04-04T13:57:16.001Z</time></trkpt><trkpt lat="42.06853614143863" lon="14.77657495107422"><ele>5.0</ele><time>2026-04-04T13:57:18.001Z</time></trkpt><trkpt lat="42.068595201656805" lon="14.776615172582078"><ele>4.666666666666667</ele><time>2026-04-04T13:57:20.001Z</time></trkpt><trkpt lat="42.06867218991854" lon="14.776678571539577"><ele>4.333333333333334</ele><time>2026-04-04T13:57:23.001Z</time></trkpt><trkpt lat="42.068732539829284" lon="14.776709387433657"><ele>4.0</ele><time>2026-04-04T13:57:25.001Z</time></trkpt><trkpt lat="42.06878897308142" lon="14.776747970448277"><ele>3.666666666666667</ele><time>2026-04-04T13:57:27.001Z</time></trkpt><trkpt lat="42.06886844759698" lon="14.776797639698195"><ele>3.3333333333333335</ele><time>2026-04-04T13:57:30.001Z</time></trkpt><trkpt lat="42.06893156432079" lon="14.776854477442589"><ele>3.0</ele><time>2026-04-04T13:57:35.001Z</time></trkpt><trkpt lat="42.06899821155547" lon="14.77690285359979"><ele>2.8571428571428568</ele><time>2026-04-04T13:57:39.001Z</time></trkpt><trkpt lat="42.06905919052768" lon="14.776947278349663"><ele>2.7142857142857144</ele><time>2026-04-04T13:57:44.001Z</time></trkpt><trkpt lat="42.069121011181274" lon="14.777001039896593"><ele>2.571428571428571</ele><time>2026-04-04T13:57:49Z</time></trkpt><trkpt lat="42.06918401462362" lon="14.777052736668706"><ele>2.4285714285714284</ele><time>2026-04-04T13:57:54.001Z</time></trkpt><trkpt lat="42.069246100559404" lon="14.7771033103678"><ele>2.2857142857142856</ele><time>2026-04-04T13:57:59.001Z</time></trkpt><trkpt lat="42.06930085235327" lon="14.77714528570717"><ele>2.142857142857143</ele><time>2026-04-04T13:58:03.001Z</time></trkpt><trkpt lat="42.069362294624035" lon="14.77720359195835"><ele>2.0</ele><time>2026-04-04T13:58:08.001Z</time></trkpt><trkpt lat="42.06943074740204" lon="14.777244521113118"><ele>2.0</ele><time>2026-04-04T13:58:13.001Z</time></trkpt><trkpt lat="42.0694958615128" lon="14.77729355870824"><ele>1.9999999999999998</ele><time>2026-04-04T13:58:18.001Z</time></trkpt><trkpt lat="42.06956489231295" lon="14.77733160653136"><ele>2.0</ele><time>2026-04-04T13:58:23.001Z</time></trkpt><trkpt lat="42.069625328128616" lon="14.77736195754091"><ele>2.0</ele><time>2026-04-04T13:58:27.001Z</time></trkpt><trkpt lat="42.06967880639292" lon="14.777413331042846"><ele>1.9999999999999998</ele><time>2026-04-04T13:58:32.001Z</time></trkpt><trkpt lat="42.06974864081596" lon="14.777441255942376"><ele>2.0</ele><time>2026-04-04T13:58:37.001Z</time></trkpt><trkpt lat="42.06981529765148" lon="14.77748367871429"><ele>2.0</ele><time>2026-04-04T13:58:41.001Z</time></trkpt><trkpt lat="42.06986019359568" lon="14.777560591249982"><ele>2.0</ele><time>2026-04-04T13:58:47.001Z</time></trkpt><trkpt lat="42.0699137391449" lon="14.777607398645708"><ele>1.9999999999999998</ele><time>2026-04-04T13:58:52.001Z</time></trkpt><trkpt lat="42.06997008761002" lon="14.777649508789084"><ele>2.0</ele><time>2026-04-04T13:58:57.001Z</time></trkpt><trkpt lat="42.070036872797" lon="14.777698524734554"><ele>2.0</ele><time>2026-04-04T13:59:02.001Z</time></trkpt><trkpt lat="42.070102870879516" lon="14.77772362607844"><ele>1.9999999999999998</ele><time>2026-04-04T13:59:07.001Z</time></trkpt><trkpt lat="42.07014871631759" lon="14.777639819849298"><ele>2.0</ele><time>2026-04-04T13:59:11.001Z</time></trkpt><trkpt lat="42.070216637829425" lon="14.777630330985497"><ele>2.0</ele><time>2026-04-04T13:59:16.001Z</time></trkpt><trkpt lat="42.07028239775731" lon="14.77767052761575"><ele>2.0</ele><time>2026-04-04T13:59:21.001Z</time></trkpt><trkpt lat="42.07035731100266" lon="14.777675370460006"><ele>1.9999999999999998</ele><time>2026-04-04T13:59:26.001Z</time></trkpt><trkpt lat="42.070409526782015" lon="14.777617848212941"><ele>2.0</ele><time>2026-04-04T13:59:30.001Z</time></trkpt><trkpt lat="42.07047501002009" lon="14.777566402135442"><ele>2.0</ele><time>2026-04-04T13:59:35.001Z</time></trkpt><trkpt lat="42.07054347294415" lon="14.777521354691059"><ele>1.9999999999999998</ele><time>2026-04-04T13:59:40.001Z</time></trkpt><trkpt lat="42.07058788982831" lon="14.777459036982695"><ele>2.0</ele><time>2026-04-04T13:59:44.001Z</time></trkpt><trkpt lat="42.07061074434954" lon="14.777350294654768"><ele>2.0</ele><time>2026-04-04T13:59:48.001Z</time></trkpt><trkpt lat="42.070634014436074" lon="14.777247898305008"><ele>1.9999999999999998</ele><time>2026-04-04T13:59:51.001Z</time></trkpt><trkpt lat="42.07064945060551" lon="14.777141738531869"><ele>2.0</ele><time>2026-04-04T13:59:54.001Z</time></trkpt><trkpt lat="42.0706655064185" lon="14.77703641994414"><ele>2.0</ele><time>2026-04-04T13:59:57.001Z</time></trkpt><trkpt lat="42.07068523825007" lon="14.776952199833245"><ele>2.0</ele><time>2026-04-04T13:59:59.001Z</time></trkpt><trkpt lat="42.07070976507283" lon="14.776868469595819"><ele>1.9999999999999998</ele><time>2026-04-04T14:00:01.001Z</time></trkpt><trkpt lat="42.07073569387622" lon="14.77674134080611"><ele>2.0</ele><time>2026-04-04T14:00:04.001Z</time></trkpt><trkpt lat="42.07077756272379" lon="14.776663734487743"><ele>1.857142857142857</ele><time>2026-04-04T14:00:07.001Z</time></trkpt><trkpt lat="42.07084212607136" lon="14.77672496671204"><ele>1.714285714285714</ele><time>2026-04-04T14:00:11.001Z</time></trkpt><trkpt lat="42.07088818507753" lon="14.776787455784095"><ele>1.5714285714285714</ele><time>2026-04-04T14:00:16.001Z</time></trkpt><trkpt lat="42.070931308730565" lon="14.776723677118648"><ele>1.4285714285714284</ele><time>2026-04-04T14:00:20.001Z</time></trkpt><trkpt lat="42.07097439871164" lon="14.776654796618281"><ele>1.2857142857142856</ele><time>2026-04-04T14:00:25.001Z</time></trkpt><trkpt lat="42.07102895035214" lon="14.776698571460852"><ele>1.1428571428571428</ele><time>2026-04-04T14:00:29.001Z</time></trkpt><trkpt lat="42.071047398259715" lon="14.776603463114453"><ele>1.0</ele><time>2026-04-04T14:00:34.001Z</time></trkpt><trkpt lat="42.071074359293284" lon="14.77652237436946"><ele>1.0</ele><time>2026-04-04T14:00:39.001Z</time></trkpt><trkpt lat="42.071096860525394" lon="14.776439675627385"><ele>0.9999999999999999</ele><time>2026-04-04T14:00:44.001Z</time></trkpt><trkpt lat="42.07112046076297" lon="14.776357991787538"><ele>1.0</ele><time>2026-04-04T14:00:49.001Z</time></trkpt><trkpt lat="42.071137535427916" lon="14.776255155160507"><ele>1.0</ele><time>2026-04-04T14:00:54.001Z</time></trkpt><trkpt lat="42.07120086709432" lon="14.776245592970888"><ele>0.9999999999999999</ele><time>2026-04-04T14:00:59.001Z</time></trkpt><trkpt lat="42.07124755887445" lon="14.776184638260078"><ele>1.0</ele><time>2026-04-04T14:01:05.001Z</time></trkpt><trkpt lat="42.07127722215356" lon="14.776095580187803"><ele>1.0</ele><time>2026-04-04T14:01:18.001Z</time></trkpt><trkpt lat="42.07130551063535" lon="14.776002021512927"><ele>0.9999999999999999</ele><time>2026-04-04T14:01:21.001Z</time></trkpt><trkpt lat="42.07132951588109" lon="14.775915908476215"><ele>1.0</ele><time>2026-04-04T14:01:23.001Z</time></trkpt><trkpt lat="42.07136664939162" lon="14.775797218774144"><ele>1.0</ele><time>2026-04-04T14:01:26.001Z</time></trkpt><trkpt lat="42.07139796357256" lon="14.775677555053676"><ele>1.0</ele><time>2026-04-04T14:01:29.001Z</time></trkpt><trkpt lat="42.07142995519409" lon="14.775603275656294"><ele>0.9999999999999999</ele><time>2026-04-04T14:01:31.001Z</time></trkpt><trkpt lat="42.071457885753865" lon="14.77547705728629"><ele>1.0</ele><time>2026-04-04T14:01:34.001Z</time></trkpt><trkpt lat="42.0714932026896" lon="14.77539229277024"><ele>0.9999999999999999</ele><time>2026-04-04T14:01:36.001Z</time></trkpt><trkpt lat="42.0715253943846" lon="14.77531230589558"><ele>1.0</ele><time>2026-04-04T14:01:38.001Z</time></trkpt><trkpt lat="42.071559181683924" lon="14.775202577642574"><ele>1.0</ele><time>2026-04-04T14:01:41.001Z</time></trkpt><trkpt lat="42.071588318347565" lon="14.775094505054295"><ele>1.0</ele><time>2026-04-04T14:01:44.001Z</time></trkpt><trkpt lat="42.07162638415009" lon="14.774993119971176"><ele>0.9999999999999999</ele><time>2026-04-04T14:01:47.001Z</time></trkpt><trkpt lat="42.07167607392616" lon="14.774889961063597"><ele>1.0</ele><time>2026-04-04T14:01:50.001Z</time></trkpt><trkpt lat="42.071720594274616" lon="14.774795613324486"><ele>0.9999999999999999</ele><time>2026-04-04T14:01:53Z</time></trkpt><trkpt lat="42.07174444839815" lon="14.774689792785113"><ele>1.0</ele><time>2026-04-04T14:01:56Z</time></trkpt><trkpt lat="42.07176755275378" lon="14.774569138963082"><ele>1.0</ele><time>2026-04-04T14:01:59Z</time></trkpt><trkpt lat="42.071795414628795" lon="14.77445927528818"><ele>1.0</ele><time>2026-04-04T14:02:02Z</time></trkpt><trkpt lat="42.071828394707794" lon="14.774339991621227"><ele>0.9999999999999999</ele><time>2026-04-04T14:02:05Z</time></trkpt><trkpt lat="42.07187107152751" lon="14.77423567336303"><ele>1.0</ele><time>2026-04-04T14:02:08Z</time></trkpt><trkpt lat="42.07190078093012" lon="14.774129967346216"><ele>1.0</ele><time>2026-04-04T14:02:11Z</time></trkpt><trkpt lat="42.071920461936536" lon="14.774048728331058"><ele>0.9999999999999999</ele><time>2026-04-04T14:02:13Z</time></trkpt><trkpt lat="42.071956920867905" lon="14.77396572535512"><ele>1.0</ele><time>2026-04-04T14:02:18Z</time></trkpt><trkpt lat="42.07198402237662" lon="14.773885483106383"><ele>1.0</ele><time>2026-04-04T14:02:22Z</time></trkpt><trkpt lat="42.07202307939133" lon="14.773806171833913"><ele>0.9999999999999999</ele><time>2026-04-04T14:02:28Z</time></trkpt><trkpt lat="42.072054801486864" lon="14.773713688933721"><ele>1.0</ele><time>2026-04-04T14:02:34Z</time></trkpt><trkpt lat="42.07209308200491" lon="14.773631387912479"><ele>1.0</ele><time>2026-04-04T14:02:40Z</time></trkpt><trkpt lat="42.07212132162591" lon="14.77353733953753"><ele>1.1428571428571428</ele><time>2026-04-04T14:02:46Z</time></trkpt><trkpt lat="42.07213810106292" lon="14.773446651764985"><ele>1.2857142857142856</ele><time>2026-04-04T14:02:56Z</time></trkpt><trkpt lat="42.072175142764436" lon="14.773357806712815"><ele>1.4285714285714284</ele><time>2026-04-04T14:03:01Z</time></trkpt><trkpt lat="42.07221309303022" lon="14.773277675546964"><ele>1.5714285714285714</ele><time>2026-04-04T14:03:06Z</time></trkpt><trkpt lat="42.07224823982228" lon="14.773201559515183"><ele>1.714285714285714</ele><time>2026-04-04T14:03:11Z</time></trkpt><trkpt lat="42.07226426032837" lon="14.77310795564465"><ele>1.857142857142857</ele><time>2026-04-04T14:03:16Z</time></trkpt><trkpt lat="42.07228996970912" lon="14.773022980584006"><ele>2.0</ele><time>2026-04-04T14:03:21Z</time></trkpt><trkpt lat="42.072316156147394" lon="14.772935293746517"><ele>2.0</ele><time>2026-04-04T14:03:27Z</time></trkpt><trkpt lat="42.07234483550841" lon="14.77283869316673"><ele>1.9999999999999998</ele><time>2026-04-04T14:03:33Z</time></trkpt><trkpt lat="42.0723749480129" lon="14.772745261218162"><ele>2.0</ele><time>2026-04-04T14:03:39Z</time></trkpt><trkpt lat="42.07243174649809" lon="14.77268812236388"><ele>2.0</ele><time>2026-04-04T14:03:45Z</time></trkpt><trkpt lat="42.07249522186061" lon="14.772639029016798"><ele>1.9999999999999998</ele><time>2026-04-04T14:03:50Z</time></trkpt><trkpt lat="42.072512518189946" lon="14.772557026479834"><ele>2.0</ele><time>2026-04-04T14:03:55Z</time></trkpt><trkpt lat="42.07256199889077" lon="14.772480196780881"><ele>2.0</ele><time>2026-04-04T14:04:14Z</time></trkpt><trkpt lat="42.07261211854918" lon="14.772427652723481"><ele>1.857142857142857</ele><time>2026-04-04T14:04:19Z</time></trkpt><trkpt lat="42.072664238339776" lon="14.772364838085329"><ele>1.714285714285714</ele><time>2026-04-04T14:04:25Z</time></trkpt><trkpt lat="42.07268491769755" lon="14.772257938512974"><ele>1.5714285714285714</ele><time>2026-04-04T14:04:44Z</time></trkpt><trkpt lat="42.07269932609076" lon="14.772165512813343"><ele>1.4285714285714284</ele><time>2026-04-04T14:04:49Z</time></trkpt><trkpt lat="42.07271805171328" lon="14.772079560910438"><ele>1.2857142857142856</ele><time>2026-04-04T14:04:54Z</time></trkpt><trkpt lat="42.072749505645916" lon="14.77199805854584"><ele>1.1428571428571428</ele><time>2026-04-04T14:04:59Z</time></trkpt><trkpt lat="42.07276455992871" lon="14.771902855013685"><ele>1.0</ele><time>2026-04-04T14:05:04Z</time></trkpt><trkpt lat="42.07278955952991" lon="14.771819368925392"><ele>1.0</ele><time>2026-04-04T14:05:09Z</time></trkpt><trkpt lat="42.07282441025407" lon="14.771738747072202"><ele>0.9999999999999999</ele><time>2026-04-04T14:05:14Z</time></trkpt><trkpt lat="42.07285219868436" lon="14.771655676942464"><ele>1.0</ele><time>2026-04-04T14:05:19Z</time></trkpt><trkpt lat="42.07286882055064" lon="14.771563142502886"><ele>1.0</ele><time>2026-04-04T14:05:24Z</time></trkpt><trkpt lat="42.07288767084509" lon="14.771467698486921"><ele>0.9999999999999999</ele><time>2026-04-04T14:05:29Z</time></trkpt><trkpt lat="42.07290562665181" lon="14.771365642755041"><ele>1.0</ele><time>2026-04-04T14:05:33Z</time></trkpt><trkpt lat="42.072926331598254" lon="14.771268582686979"><ele>1.0</ele><time>2026-04-04T14:05:36Z</time></trkpt><trkpt lat="42.07294517000603" lon="14.771158498566697"><ele>1.0</ele><time>2026-04-04T14:05:39Z</time></trkpt><trkpt lat="42.07297533955428" lon="14.7710477861266"><ele>0.9999999999999999</ele><time>2026-04-04T14:05:41Z</time></trkpt><trkpt lat="42.07299376254572" lon="14.770950735828059"><ele>1.0</ele><time>2026-04-04T14:06:01Z</time></trkpt><trkpt lat="42.073015049337464" lon="14.770863987072989"><ele>1.0</ele><time>2026-04-04T14:06:05Z</time></trkpt><trkpt lat="42.073040471066825" lon="14.770780513271852"><ele>0.9999999999999999</ele><time>2026-04-04T14:06:10Z</time></trkpt><trkpt lat="42.07305728053482" lon="14.770685155426369"><ele>1.0</ele><time>2026-04-04T14:06:15Z</time></trkpt><trkpt lat="42.07308615980243" lon="14.770597882611254"><ele>1.0</ele><time>2026-04-04T14:06:20Z</time></trkpt><trkpt lat="42.07310549815069" lon="14.770502432069735"><ele>1.0</ele><time>2026-04-04T14:06:25Z</time></trkpt><trkpt lat="42.07313806537672" lon="14.770415195612554"><ele>0.9999999999999999</ele><time>2026-04-04T14:06:30Z</time></trkpt><trkpt lat="42.07318344463054" lon="14.770344391851117"><ele>1.0</ele><time>2026-04-04T14:06:35Z</time></trkpt><trkpt lat="42.073208177537126" lon="14.770251172600869"><ele>1.0</ele><time>2026-04-04T14:06:40Z</time></trkpt><trkpt lat="42.073231364455324" lon="14.770148449687657"><ele>0.9999999999999999</ele><time>2026-04-04T14:06:44Z</time></trkpt><trkpt lat="42.07325208628943" lon="14.77005401386684"><ele>1.0</ele><time>2026-04-04T14:06:47Z</time></trkpt><trkpt lat="42.073275035047345" lon="14.769965594884427"><ele>1.0</ele><time>2026-04-04T14:06:50Z</time></trkpt><trkpt lat="42.07329799799532" lon="14.769886474533566"><ele>1.0</ele><time>2026-04-04T14:06:53Z</time></trkpt><trkpt lat="42.073324432983355" lon="14.769796336013943"><ele>0.9999999999999999</ele><time>2026-04-04T14:06:56Z</time></trkpt><trkpt lat="42.0733417540279" lon="14.769714465168407"><ele>1.0</ele><time>2026-04-04T14:06:58Z</time></trkpt><trkpt lat="42.07337011409283" lon="14.769631927407374"><ele>1.0</ele><time>2026-04-04T14:07:00Z</time></trkpt><trkpt lat="42.073400848721086" lon="14.769536245360262"><ele>0.9999999999999999</ele><time>2026-04-04T14:07:02Z</time></trkpt><trkpt lat="42.07342803795634" lon="14.769443044209922"><ele>1.0</ele><time>2026-04-04T14:07:04Z</time></trkpt><trkpt lat="42.073447031071005" lon="14.769346085041493"><ele>1.0</ele><time>2026-04-04T14:07:06Z</time></trkpt><trkpt lat="42.073476652569965" lon="14.769256925089609"><ele>0.8333333333333333</ele><time>2026-04-04T14:07:08Z</time></trkpt><trkpt lat="42.07348804925921" lon="14.76914698585613"><ele>0.6666666666666666</ele><time>2026-04-04T14:07:11Z</time></trkpt><trkpt lat="42.07352751046092" lon="14.76907563946291"><ele>0.5</ele><time>2026-04-04T14:07:13Z</time></trkpt><trkpt lat="42.07355267226323" lon="14.76898973468473"><ele>0.3333333333333333</ele><time>2026-04-04T14:07:15Z</time></trkpt><trkpt lat="42.0735827005572" lon="14.768885929163845"><ele>0.16666666666666666</ele><time>2026-04-04T14:07:18Z</time></trkpt><trkpt lat="42.07360522909803" lon="14.768769832594701"><ele>0.0</ele><time>2026-04-04T14:07:21Z</time></trkpt><trkpt lat="42.07361674156423" lon="14.768663421403346"><ele>0.0</ele><time>2026-04-04T14:07:24Z</time></trkpt><trkpt lat="42.07365528549126" lon="14.768557870202468"><ele>0.0</ele><time>2026-04-04T14:07:27Z</time></trkpt><trkpt lat="42.073676898842514" lon="14.768459113829945"><ele>0.0</ele><time>2026-04-04T14:07:30Z</time></trkpt><trkpt lat="42.07371119587306" lon="14.768379560623089"><ele>0.0</ele><time>2026-04-04T14:07:34Z</time></trkpt><trkpt lat="42.0737394453771" lon="14.768285945718231"><ele>0.0</ele><time>2026-04-04T14:07:40Z</time></trkpt><trkpt lat="42.07377700381709" lon="14.768202313954038"><ele>0.0</ele><time>2026-04-04T14:07:46Z</time></trkpt><trkpt lat="42.07380535964178" lon="14.768125541568697"><ele>0.0</ele><time>2026-04-04T14:07:51Z</time></trkpt><trkpt lat="42.07383400273226" lon="14.768043905800738"><ele>0.14285714285714285</ele><time>2026-04-04T14:07:56Z</time></trkpt><trkpt lat="42.07385983228197" lon="14.767964269981194"><ele>0.2857142857142857</ele><time>2026-04-04T14:08:01Z</time></trkpt><trkpt lat="42.073895113806394" lon="14.767891016943572"><ele>0.42857142857142855</ele><time>2026-04-04T14:08:06Z</time></trkpt><trkpt lat="42.07392606116099" lon="14.7678116661459"><ele>0.5714285714285714</ele><time>2026-04-04T14:08:11Z</time></trkpt><trkpt lat="42.07395115990458" lon="14.767732677834603"><ele>0.7142857142857142</ele><time>2026-04-04T14:08:16Z</time></trkpt><trkpt lat="42.073982799715736" lon="14.767653470602477"><ele>0.8571428571428571</ele><time>2026-04-04T14:08:21Z</time></trkpt><trkpt lat="42.07401901651499" lon="14.767573792055392"><ele>1.0</ele><time>2026-04-04T14:08:26Z</time></trkpt><trkpt lat="42.074051137107645" lon="14.767494586970981"><ele>1.0</ele><time>2026-04-04T14:08:31Z</time></trkpt><trkpt lat="42.07409081668798" lon="14.767420665915827"><ele>0.9999999999999999</ele><time>2026-04-04T14:08:36Z</time></trkpt><trkpt lat="42.07414144430136" lon="14.767362571827867"><ele>1.0</ele><time>2026-04-04T14:08:41Z</time></trkpt><trkpt lat="42.074188295980356" lon="14.76730528550457"><ele>1.0</ele><time>2026-04-04T14:08:46Z</time></trkpt><trkpt lat="42.07421615092511" lon="14.767213354420768"><ele>0.9999999999999999</ele><time>2026-04-04T14:08:52Z</time></trkpt><trkpt lat="42.07424331120512" lon="14.7671328414385"><ele>1.0</ele><time>2026-04-04T14:08:57Z</time></trkpt><trkpt lat="42.074270994314126" lon="14.76705000868134"><ele>1.0</ele><time>2026-04-04T14:09:02Z</time></trkpt><trkpt lat="42.074296772300244" lon="14.766966683097198"><ele>1.0</ele><time>2026-04-04T14:09:07Z</time></trkpt><trkpt lat="42.07432122872173" lon="14.76688597936156"><ele>0.9999999999999999</ele><time>2026-04-04T14:09:12Z</time></trkpt><trkpt lat="42.074353613373106" lon="14.766809535563155"><ele>1.0</ele><time>2026-04-04T14:09:17Z</time></trkpt><trkpt lat="42.07440460625672" lon="14.766756250869474"><ele>1.0</ele><time>2026-04-04T14:09:22Z</time></trkpt><trkpt lat="42.0744691224168" lon="14.766721359198248"><ele>0.9999999999999999</ele><time>2026-04-04T14:09:27Z</time></trkpt><trkpt lat="42.07453874600434" lon="14.76670385230367"><ele>1.0</ele><time>2026-04-04T14:09:32Z</time></trkpt><trkpt lat="42.074587323097546" lon="14.766633699758373"><ele>1.0</ele><time>2026-04-04T14:09:37Z</time></trkpt><trkpt lat="42.07462032010046" lon="14.766547974412525"><ele>1.2857142857142856</ele><time>2026-04-04T14:09:42Z</time></trkpt><trkpt lat="42.07464731058672" lon="14.766462370163595"><ele>1.5714285714285712</ele><time>2026-04-04T14:09:47Z</time></trkpt><trkpt lat="42.07467279816698" lon="14.766375366643357"><ele>1.857142857142857</ele><time>2026-04-04T14:09:52Z</time></trkpt><trkpt lat="42.074692576311065" lon="14.766287925184136"><ele>2.142857142857143</ele><time>2026-04-04T14:09:57Z</time></trkpt><trkpt lat="42.07474050773706" lon="14.76622673291394"><ele>2.4285714285714284</ele><time>2026-04-04T14:10:02Z</time></trkpt><trkpt lat="42.07470516401287" lon="14.766142548632107"><ele>2.714285714285714</ele><time>2026-04-04T14:10:13Z</time></trkpt><trkpt lat="42.07464265098742" lon="14.766118526151086"><ele>3.0</ele><time>2026-04-04T14:11:26Z</time></trkpt><trkpt lat="42.074572927252404" lon="14.76614035645536"><ele>2.9999999999999996</ele><time>2026-04-04T14:11:31Z</time></trkpt><trkpt lat="42.07450732990706" lon="14.766146512890908"><ele>3.0</ele><time>2026-04-04T14:11:36Z</time></trkpt><trkpt lat="42.07443568474843" lon="14.766129108137891"><ele>3.0</ele><time>2026-04-04T14:11:42Z</time></trkpt><trkpt lat="42.07437126061827" lon="14.766107881371434"><ele>3.0</ele><time>2026-04-04T14:11:47Z</time></trkpt><trkpt lat="42.07429666981092" lon="14.766084892601517"><ele>3.0</ele><time>2026-04-04T14:11:53Z</time></trkpt><trkpt lat="42.07422870551295" lon="14.766064360803169"><ele>2.9999999999999996</ele><time>2026-04-04T14:12:02Z</time></trkpt><trkpt lat="42.07417001275124" lon="14.766019599370587"><ele>3.0</ele><time>2026-04-04T14:12:08Z</time></trkpt><trkpt lat="42.07421844420607" lon="14.765956974008294"><ele>2.8571428571428568</ele><time>2026-04-04T14:12:13Z</time></trkpt><trkpt lat="42.07426678522514" lon="14.765897236483545"><ele>2.7142857142857144</ele><time>2026-04-04T14:12:18Z</time></trkpt><trkpt lat="42.074298855900714" lon="14.765812193942889"><ele>2.571428571428571</ele><time>2026-04-04T14:12:23Z</time></trkpt><trkpt lat="42.07432940395962" lon="14.76573003655429"><ele>2.4285714285714284</ele><time>2026-04-04T14:12:28Z</time></trkpt><trkpt lat="42.07436754743535" lon="14.765653669436954"><ele>2.2857142857142856</ele><time>2026-04-04T14:12:33Z</time></trkpt><trkpt lat="42.07441588964126" lon="14.765578256110501"><ele>2.142857142857143</ele><time>2026-04-04T14:12:39Z</time></trkpt><trkpt lat="42.074455239394815" lon="14.765508466687365"><ele>2.0</ele><time>2026-04-04T14:12:44Z</time></trkpt><trkpt lat="42.0744663162524" lon="14.765418510518561"><ele>2.0</ele><time>2026-04-04T14:12:49Z</time></trkpt><trkpt lat="42.07452450159596" lon="14.765374893026983"><ele>1.9999999999999998</ele><time>2026-04-04T14:12:54Z</time></trkpt><trkpt lat="42.074591353923545" lon="14.76538794384874"><ele>2.0</ele><time>2026-04-04T14:12:59Z</time></trkpt><trkpt lat="42.07465668833093" lon="14.765332270560954"><ele>2.0</ele><time>2026-04-04T14:13:37Z</time></trkpt><trkpt lat="42.07471024178833" lon="14.765277726674313"><ele>1.9999999999999998</ele><time>2026-04-04T14:13:42Z</time></trkpt><trkpt lat="42.07477148649799" lon="14.765241258974495"><ele>2.0</ele><time>2026-04-04T14:13:47Z</time></trkpt><trkpt lat="42.0748345395422" lon="14.765198359770409"><ele>2.0</ele><time>2026-04-04T14:13:52Z</time></trkpt><trkpt lat="42.07489645904251" lon="14.765154976543437"><ele>1.7142857142857142</ele><time>2026-04-04T14:13:57Z</time></trkpt><trkpt lat="42.07495987531479" lon="14.765120550623505"><ele>1.4285714285714284</ele><time>2026-04-04T14:14:02Z</time></trkpt><trkpt lat="42.075017253892845" lon="14.765075442563115"><ele>1.1428571428571428</ele><time>2026-04-04T14:14:07Z</time></trkpt><trkpt lat="42.07507182393106" lon="14.765028233102171"><ele>0.8571428571428571</ele><time>2026-04-04T14:14:12Z</time></trkpt><trkpt lat="42.075128757130216" lon="14.764990081797311"><ele>0.5714285714285714</ele><time>2026-04-04T14:14:19Z</time></trkpt><trkpt lat="42.07518596487214" lon="14.764950034384942"><ele>0.2857142857142857</ele><time>2026-04-04T14:14:24Z</time></trkpt><trkpt lat="42.075242674225116" lon="14.764888220798442"><ele>0.0</ele><time>2026-04-04T14:14:30Z</time></trkpt><trkpt lat="42.075287070805956" lon="14.76481675496515"><ele>0.0</ele><time>2026-04-04T14:14:36Z</time></trkpt><trkpt lat="42.075310830642934" lon="14.764734982489774"><ele>0.0</ele><time>2026-04-04T14:14:42Z</time></trkpt><trkpt lat="42.07533497911836" lon="14.764636931812664"><ele>0.0</ele><time>2026-04-04T14:14:48Z</time></trkpt><trkpt lat="42.07533862297319" lon="14.76455049994101"><ele>0.0</ele><time>2026-04-04T14:14:53Z</time></trkpt><trkpt lat="42.075331321424336" lon="14.764462348294902"><ele>0.0</ele><time>2026-04-04T14:14:58Z</time></trkpt><trkpt lat="42.07535047309764" lon="14.764371024319768"><ele>0.0</ele><time>2026-04-04T14:15:04Z</time></trkpt><trkpt lat="42.07538047097496" lon="14.764289792890567"><ele>0.0</ele><time>2026-04-04T14:15:09Z</time></trkpt><trkpt lat="42.07541837980013" lon="14.764210350391119"><ele>0.14285714285714285</ele><time>2026-04-04T14:15:15Z</time></trkpt><trkpt lat="42.07544875006132" lon="14.764119361264417"><ele>0.2857142857142857</ele><time>2026-04-04T14:15:21Z</time></trkpt><trkpt lat="42.07549562629531" lon="14.764044651579232"><ele>0.42857142857142855</ele><time>2026-04-04T14:15:27Z</time></trkpt><trkpt lat="42.075542418663666" lon="14.763960750040026"><ele>0.5714285714285714</ele><time>2026-04-04T14:15:35Z</time></trkpt><trkpt lat="42.07556225558572" lon="14.763864125686586"><ele>0.7142857142857142</ele><time>2026-04-04T14:15:41Z</time></trkpt><trkpt lat="42.0755859570744" lon="14.763781958238749"><ele>0.8571428571428571</ele><time>2026-04-04T14:15:46Z</time></trkpt><trkpt lat="42.075604503076995" lon="14.763688313501014"><ele>1.0</ele><time>2026-04-04T14:15:52Z</time></trkpt><trkpt lat="42.075623753701294" lon="14.763591630946589"><ele>1.0</ele><time>2026-04-04T14:15:58Z</time></trkpt><trkpt lat="42.075629462290955" lon="14.763505515411014"><ele>0.9999999999999999</ele><time>2026-04-04T14:16:03Z</time></trkpt><trkpt lat="42.07564121843984" lon="14.763415392724854"><ele>1.0</ele><time>2026-04-04T14:16:08Z</time></trkpt><trkpt lat="42.075660097099444" lon="14.763319688092908"><ele>1.0</ele><time>2026-04-04T14:16:14Z</time></trkpt><trkpt lat="42.075673761535754" lon="14.763234555099565"><ele>0.9999999999999999</ele><time>2026-04-04T14:16:19Z</time></trkpt><trkpt lat="42.07570103221839" lon="14.763143984616686"><ele>1.0</ele><time>2026-04-04T14:16:25Z</time></trkpt><trkpt lat="42.07572335371029" lon="14.76306129099505"><ele>1.0</ele><time>2026-04-04T14:16:30Z</time></trkpt><trkpt lat="42.07573462277684" lon="14.762966389838882"><ele>1.0</ele><time>2026-04-04T14:16:36Z</time></trkpt><trkpt lat="42.07574282587869" lon="14.762872321095285"><ele>0.9999999999999999</ele><time>2026-04-04T14:16:42Z</time></trkpt><trkpt lat="42.07573273227871" lon="14.762773187489165"><ele>1.0</ele><time>2026-04-04T14:16:50Z</time></trkpt><trkpt lat="42.07576344302734" lon="14.762694994623725"><ele>1.0</ele><time>2026-04-04T14:16:55Z</time></trkpt><trkpt lat="42.07580057964756" lon="14.762615992411988"><ele>0.9999999999999999</ele><time>2026-04-04T14:17:00Z</time></trkpt><trkpt lat="42.07582985483232" lon="14.762531513888906"><ele>1.0</ele><time>2026-04-04T14:17:05Z</time></trkpt><trkpt lat="42.075853483863256" lon="14.762441884330727"><ele>1.0</ele><time>2026-04-04T14:17:10Z</time></trkpt><trkpt lat="42.07589331286208" lon="14.762367837422207"><ele>0.8571428571428571</ele><time>2026-04-04T14:17:16Z</time></trkpt><trkpt lat="42.07590288253944" lon="14.762276282118794"><ele>0.7142857142857142</ele><time>2026-04-04T14:17:51Z</time></trkpt><trkpt lat="42.07591639713905" lon="14.762180936669262"><ele>0.5714285714285714</ele><time>2026-04-04T14:17:56Z</time></trkpt><trkpt lat="42.075943736607776" lon="14.76209999921245"><ele>0.42857142857142855</ele><time>2026-04-04T14:18:02Z</time></trkpt><trkpt lat="42.07597562588775" lon="14.76202603601801"><ele>0.2857142857142857</ele><time>2026-04-04T14:18:07Z</time></trkpt><trkpt lat="42.0759997500578" lon="14.76194311119793"><ele>0.14285714285714285</ele><time>2026-04-04T14:18:12Z</time></trkpt><trkpt lat="42.0760294170145" lon="14.761858406562405"><ele>0.0</ele><time>2026-04-04T14:18:17Z</time></trkpt><trkpt lat="42.07605981744412" lon="14.761781555547786"><ele>0.0</ele><time>2026-04-04T14:18:22Z</time></trkpt><trkpt lat="42.076077066214275" lon="14.761697838062473"><ele>0.0</ele><time>2026-04-04T14:18:27Z</time></trkpt><trkpt lat="42.07610178293653" lon="14.761611483965694"><ele>0.0</ele><time>2026-04-04T14:18:32Z</time></trkpt><trkpt lat="42.076134953736585" lon="14.761521100743723"><ele>0.0</ele><time>2026-04-04T14:18:37Z</time></trkpt><trkpt lat="42.07616965764321" lon="14.761439481428232"><ele>0.0</ele><time>2026-04-04T14:18:43Z</time></trkpt><trkpt lat="42.076193511608494" lon="14.76135175444699"><ele>0.0</ele><time>2026-04-04T14:18:49Z</time></trkpt><trkpt lat="42.076222757113115" lon="14.76126634067143"><ele>0.0</ele><time>2026-04-04T14:18:55Z</time></trkpt><trkpt lat="42.076259306474036" lon="14.761183361832781"><ele>0.0</ele><time>2026-04-04T14:19:01Z</time></trkpt><trkpt lat="42.07630250786714" lon="14.761109162789445"><ele>0.0</ele><time>2026-04-04T14:19:06Z</time></trkpt><trkpt lat="42.076332518286726" lon="14.7610210279419"><ele>0.0</ele><time>2026-04-04T14:19:11Z</time></trkpt><trkpt lat="42.07637031494824" lon="14.7609353320262"><ele>0.0</ele><time>2026-04-04T14:19:16Z</time></trkpt><trkpt lat="42.07641165058272" lon="14.760867994094767"><ele>0.0</ele><time>2026-04-04T14:19:21Z</time></trkpt><trkpt lat="42.07646490213786" lon="14.760796630733086"><ele>0.0</ele><time>2026-04-04T14:19:26Z</time></trkpt><trkpt lat="42.07649543230427" lon="14.760711901159281"><ele>0.0</ele><time>2026-04-04T14:19:31Z</time></trkpt><trkpt lat="42.07654813306669" lon="14.760643156670026"><ele>0.0</ele><time>2026-04-04T14:19:36Z</time></trkpt><trkpt lat="42.07660154611062" lon="14.760594035157965"><ele>0.0</ele><time>2026-04-04T14:19:41Z</time></trkpt><trkpt lat="42.076666591166926" lon="14.760555193449978"><ele>0.0</ele><time>2026-04-04T14:19:46Z</time></trkpt><trkpt lat="42.07673163897905" lon="14.760518928837962"><ele>0.0</ele><time>2026-04-04T14:19:51Z</time></trkpt><trkpt lat="42.07679669848686" lon="14.760490748888328"><ele>0.0</ele><time>2026-04-04T14:19:57Z</time></trkpt><trkpt lat="42.076872048540245" lon="14.760478902196347"><ele>0.0</ele><time>2026-04-04T14:20:03Z</time></trkpt><trkpt lat="42.076922727426904" lon="14.760404563080002"><ele>0.0</ele><time>2026-04-04T14:20:08Z</time></trkpt><trkpt lat="42.07697347805352" lon="14.760339381869725"><ele>0.0</ele><time>2026-04-04T14:20:13Z</time></trkpt><trkpt lat="42.07702576904329" lon="14.760277649145625"><ele>0.0</ele><time>2026-04-04T14:20:18Z</time></trkpt><trkpt lat="42.077073224746925" lon="14.760206321781432"><ele>0.0</ele><time>2026-04-04T14:20:23Z</time></trkpt><trkpt lat="42.077129779627285" lon="14.760155390037156"><ele>0.0</ele><time>2026-04-04T14:20:28Z</time></trkpt><trkpt lat="42.077169131774504" lon="14.760070850784215"><ele>0.0</ele><time>2026-04-04T14:20:33Z</time></trkpt><trkpt lat="42.07719719512613" lon="14.759984202856854"><ele>0.0</ele><time>2026-04-04T14:20:38Z</time></trkpt><trkpt lat="42.077236858538285" lon="14.759910532389481"><ele>0.0</ele><time>2026-04-04T14:20:43Z</time></trkpt><trkpt lat="42.0772712387199" lon="14.759820855098969"><ele>0.0</ele><time>2026-04-04T14:20:48Z</time></trkpt><trkpt lat="42.07731655546219" lon="14.75974572217113"><ele>0.0</ele><time>2026-04-04T14:20:53Z</time></trkpt><trkpt lat="42.07735453334233" lon="14.759659208860764"><ele>0.0</ele><time>2026-04-04T14:20:58Z</time></trkpt><trkpt lat="42.077398457914306" lon="14.75958202266088"><ele>0.0</ele><time>2026-04-04T14:21:03Z</time></trkpt><trkpt lat="42.07744243817701" lon="14.759498021318224"><ele>0.0</ele><time>2026-04-04T14:21:08Z</time></trkpt><trkpt lat="42.07748829789006" lon="14.759421149881138"><ele>0.0</ele><time>2026-04-04T14:21:13Z</time></trkpt><trkpt lat="42.07752635728542" lon="14.759339631810994"><ele>0.0</ele><time>2026-04-04T14:21:18Z</time></trkpt><trkpt lat="42.07757003214807" lon="14.759260487321413"><ele>0.0</ele><time>2026-04-04T14:21:23Z</time></trkpt><trkpt lat="42.07762141644066" lon="14.75918644037554"><ele>0.0</ele><time>2026-04-04T14:21:28Z</time></trkpt><trkpt lat="42.077662917530546" lon="14.759108263355197"><ele>0.0</ele><time>2026-04-04T14:21:33Z</time></trkpt><trkpt lat="42.07770295390736" lon="14.759033844532578"><ele>0.0</ele><time>2026-04-04T14:21:38Z</time></trkpt><trkpt lat="42.077742360777044" lon="14.75895647735542"><ele>0.0</ele><time>2026-04-04T14:21:43Z</time></trkpt><trkpt lat="42.07777735658832" lon="14.758878673176273"><ele>0.0</ele><time>2026-04-04T14:21:48Z</time></trkpt><trkpt lat="42.07781669000454" lon="14.75880675995781"><ele>0.0</ele><time>2026-04-04T14:21:53Z</time></trkpt><trkpt lat="42.07785443256616" lon="14.758732980073313"><ele>0.0</ele><time>2026-04-04T14:21:58Z</time></trkpt><trkpt lat="42.0778770142178" lon="14.758652053987714"><ele>0.0</ele><time>2026-04-04T14:22:03Z</time></trkpt><trkpt lat="42.07789772385867" lon="14.758556795937665"><ele>0.0</ele><time>2026-04-04T14:23:15Z</time></trkpt><trkpt lat="42.07793979407171" lon="14.758483664676145"><ele>0.0</ele><time>2026-04-04T14:23:20Z</time></trkpt><trkpt lat="42.07792408043446" lon="14.758387647994498"><ele>0.0</ele><time>2026-04-04T14:23:26Z</time></trkpt><trkpt lat="42.077883368876535" lon="14.758321021973893"><ele>0.0</ele><time>2026-04-04T14:23:31Z</time></trkpt><trkpt lat="42.0778473065765" lon="14.758237487776817"><ele>0.0</ele><time>2026-04-04T14:23:41Z</time></trkpt><trkpt lat="42.077802764678815" lon="14.758155718638136"><ele>0.0</ele><time>2026-04-04T14:23:46Z</time></trkpt><trkpt lat="42.07777272770627" lon="14.758069610955772"><ele>0.0</ele><time>2026-04-04T14:23:52Z</time></trkpt><trkpt lat="42.077745204888835" lon="14.75798408909067"><ele>0.0</ele><time>2026-04-04T14:23:58Z</time></trkpt><trkpt lat="42.07769700299572" lon="14.757920997636603"><ele>0.0</ele><time>2026-04-04T14:24:03Z</time></trkpt><trkpt lat="42.07763175855717" lon="14.757880276076577"><ele>0.0</ele><time>2026-04-04T14:24:08Z</time></trkpt><trkpt lat="42.077566916177936" lon="14.757835474317893"><ele>0.0</ele><time>2026-04-04T14:24:13Z</time></trkpt><trkpt lat="42.077506756141624" lon="14.757786615953815"><ele>0.0</ele><time>2026-04-04T14:24:19Z</time></trkpt><trkpt lat="42.07744308863771" lon="14.757747560171872"><ele>0.42857142857142855</ele><time>2026-04-04T14:24:25Z</time></trkpt><trkpt lat="42.077384846952945" lon="14.75770322931108"><ele>0.8571428571428571</ele><time>2026-04-04T14:24:30Z</time></trkpt><trkpt lat="42.07732005779663" lon="14.757665735971754"><ele>1.2857142857142856</ele><time>2026-04-04T14:24:35Z</time></trkpt><trkpt lat="42.07726125314988" lon="14.757632248925994"><ele>1.7142857142857142</ele><time>2026-04-04T14:24:40Z</time></trkpt><trkpt lat="42.07719522404144" lon="14.757656000163713"><ele>2.142857142857143</ele><time>2026-04-04T14:24:52Z</time></trkpt><trkpt lat="42.07716894491694" lon="14.757746670041215"><ele>2.571428571428571</ele><time>2026-04-04T14:24:57Z</time></trkpt><trkpt lat="42.077137789324674" lon="14.757829353283132"><ele>3.0</ele><time>2026-04-04T14:25:02Z</time></trkpt><trkpt lat="42.07710654908329" lon="14.757911836066796"><ele>2.9999999999999996</ele><time>2026-04-04T14:25:08Z</time></trkpt><trkpt lat="42.07707104717809" lon="14.757996557809951"><ele>3.0</ele><time>2026-04-04T14:25:13Z</time></trkpt><trkpt lat="42.07703780270455" lon="14.75810616812635"><ele>3.0</ele><time>2026-04-04T14:25:18Z</time></trkpt><trkpt lat="42.07698244556464" lon="14.758168244587125"><ele>3.0</ele><time>2026-04-04T14:25:25Z</time></trkpt><trkpt lat="42.076937554417064" lon="14.758248758573988"><ele>3.0</ele><time>2026-04-04T14:25:31Z</time></trkpt><trkpt lat="42.07690452621333" lon="14.758335136355171"><ele>2.9999999999999996</ele><time>2026-04-04T14:25:36Z</time></trkpt><trkpt lat="42.07687902221254" lon="14.75842127636604"><ele>3.0</ele><time>2026-04-04T14:25:41Z</time></trkpt><trkpt lat="42.07683660746078" lon="14.758499890221776"><ele>2.8571428571428568</ele><time>2026-04-04T14:25:46Z</time></trkpt><trkpt lat="42.0768073274889" lon="14.758587711905278"><ele>2.7142857142857144</ele><time>2026-04-04T14:25:51Z</time></trkpt><trkpt lat="42.07677326515406" lon="14.758672244788826"><ele>2.571428571428571</ele><time>2026-04-04T14:25:56Z</time></trkpt><trkpt lat="42.076733239799886" lon="14.758753102560414"><ele>2.4285714285714284</ele><time>2026-04-04T14:26:01Z</time></trkpt><trkpt lat="42.07670537891378" lon="14.758840328419822"><ele>2.2857142857142856</ele><time>2026-04-04T14:26:06Z</time></trkpt><trkpt lat="42.07666963460777" lon="14.758923856359711"><ele>2.142857142857143</ele><time>2026-04-04T14:26:11Z</time></trkpt><trkpt lat="42.076633311348495" lon="14.759010304028083"><ele>2.0</ele><time>2026-04-04T14:26:16Z</time></trkpt><trkpt lat="42.07659575224018" lon="14.759095477014482"><ele>1.9999999999999998</ele><time>2026-04-04T14:26:20Z</time></trkpt><trkpt lat="42.076566192693896" lon="14.759170523445144"><ele>2.0</ele><time>2026-04-04T14:26:23Z</time></trkpt><trkpt lat="42.07652978451116" lon="14.759253733386283"><ele>2.0</ele><time>2026-04-04T14:26:26Z</time></trkpt><trkpt lat="42.076496542834064" lon="14.75935483957097"><ele>2.0</ele><time>2026-04-04T14:26:28Z</time></trkpt><trkpt lat="42.0764523173576" lon="14.75945432919197"><ele>1.9999999999999998</ele><time>2026-04-04T14:26:30Z</time></trkpt><trkpt lat="42.07641712183641" lon="14.759553635464602"><ele>2.0</ele><time>2026-04-04T14:26:32Z</time></trkpt><trkpt lat="42.07638281027094" lon="14.759637707833157"><ele>1.8333333333333333</ele><time>2026-04-04T14:26:34Z</time></trkpt><trkpt lat="42.076341556519914" lon="14.759737405520891"><ele>1.6666666666666665</ele><time>2026-04-04T14:26:37Z</time></trkpt><trkpt lat="42.07630547141035" lon="14.759812729150374"><ele>1.5</ele><time>2026-04-04T14:26:39Z</time></trkpt><trkpt lat="42.076273094281596" lon="14.759911377284736"><ele>1.3333333333333333</ele><time>2026-04-04T14:26:42Z</time></trkpt><trkpt lat="42.07622426065793" lon="14.760008659556046"><ele>1.1666666666666665</ele><time>2026-04-04T14:26:45Z</time></trkpt><trkpt lat="42.076191316915036" lon="14.760116623842308"><ele>1.0</ele><time>2026-04-04T14:26:48Z</time></trkpt><trkpt lat="42.07615738006822" lon="14.760188089663103"><ele>1.0</ele><time>2026-04-04T14:26:50Z</time></trkpt><trkpt lat="42.0761098101031" lon="14.760286731987943"><ele>0.9999999999999999</ele><time>2026-04-04T14:26:53Z</time></trkpt><trkpt lat="42.07607236739446" lon="14.760356845550277"><ele>1.0</ele><time>2026-04-04T14:26:56Z</time></trkpt><trkpt lat="42.07603908247479" lon="14.760436860054883"><ele>1.0</ele><time>2026-04-04T14:27:01Z</time></trkpt><trkpt lat="42.075992651626265" lon="14.760496087295406"><ele>0.9999999999999999</ele><time>2026-04-04T14:27:06Z</time></trkpt><trkpt lat="42.075964851277256" lon="14.760582751232242"><ele>1.0</ele><time>2026-04-04T14:27:11Z</time></trkpt><trkpt lat="42.07592878179292" lon="14.760661968254958"><ele>1.0</ele><time>2026-04-04T14:27:16Z</time></trkpt><trkpt lat="42.075894213947" lon="14.76074882717231"><ele>1.0</ele><time>2026-04-04T14:27:21Z</time></trkpt><trkpt lat="42.0758585440414" lon="14.760833177952941"><ele>0.9999999999999999</ele><time>2026-04-04T14:27:26Z</time></trkpt><trkpt lat="42.075826116169424" lon="14.760919818543373"><ele>1.0</ele><time>2026-04-04T14:27:31Z</time></trkpt><trkpt lat="42.075785314356644" lon="14.761004382300124"><ele>1.0</ele><time>2026-04-04T14:27:36Z</time></trkpt><trkpt lat="42.07575422430587" lon="14.761093845992871"><ele>0.9999999999999999</ele><time>2026-04-04T14:27:41Z</time></trkpt><trkpt lat="42.0757145989847" lon="14.7611773774232"><ele>1.0</ele><time>2026-04-04T14:27:46Z</time></trkpt><trkpt lat="42.07568395445997" lon="14.761271412914876"><ele>1.0</ele><time>2026-04-04T14:27:51Z</time></trkpt><trkpt lat="42.07565258785295" lon="14.76135792246021"><ele>1.0</ele><time>2026-04-04T14:27:56Z</time></trkpt><trkpt lat="42.07562225410476" lon="14.761449813510577"><ele>0.9999999999999999</ele><time>2026-04-04T14:28:01Z</time></trkpt><trkpt lat="42.07558739688667" lon="14.761539208081748"><ele>1.0</ele><time>2026-04-04T14:28:06Z</time></trkpt><trkpt lat="42.07554500369097" lon="14.761618381444796"><ele>1.0</ele><time>2026-04-04T14:28:11Z</time></trkpt><trkpt lat="42.07550207617076" lon="14.761697504965356"><ele>0.9999999999999999</ele><time>2026-04-04T14:28:16Z</time></trkpt><trkpt lat="42.07546288693102" lon="14.761782695794517"><ele>1.0</ele><time>2026-04-04T14:28:21Z</time></trkpt><trkpt lat="42.075430008098955" lon="14.761872604001727"><ele>1.0</ele><time>2026-04-04T14:28:26Z</time></trkpt><trkpt lat="42.075398003448555" lon="14.761964340159686"><ele>1.0</ele><time>2026-04-04T14:28:31Z</time></trkpt><trkpt lat="42.07536807255949" lon="14.762060994109275"><ele>0.9999999999999999</ele><time>2026-04-04T14:28:36Z</time></trkpt><trkpt lat="42.075340500806035" lon="14.762154041882175"><ele>1.0</ele><time>2026-04-04T14:28:41Z</time></trkpt><trkpt lat="42.07531639748352" lon="14.762250617348855"><ele>1.0</ele><time>2026-04-04T14:28:46Z</time></trkpt><trkpt lat="42.075286881202494" lon="14.762343940978909"><ele>0.9999999999999999</ele><time>2026-04-04T14:28:51Z</time></trkpt><trkpt lat="42.075258122534414" lon="14.762433545742791"><ele>1.0</ele><time>2026-04-04T14:28:56Z</time></trkpt><trkpt lat="42.07523064187958" lon="14.762524723147308"><ele>1.0</ele><time>2026-04-04T14:29:01Z</time></trkpt><trkpt lat="42.07520340189081" lon="14.762616832585362"><ele>1.0</ele><time>2026-04-04T14:29:06Z</time></trkpt><trkpt lat="42.07517765555895" lon="14.762707196059688"><ele>0.9999999999999999</ele><time>2026-04-04T14:29:11Z</time></trkpt><trkpt lat="42.07515046286837" lon="14.762799733374834"><ele>1.0</ele><time>2026-04-04T14:29:16Z</time></trkpt><trkpt lat="42.075122676850036" lon="14.762892690753942"><ele>1.0</ele><time>2026-04-04T14:29:21Z</time></trkpt><trkpt lat="42.0750894987598" lon="14.762984452117493"><ele>0.9999999999999999</ele><time>2026-04-04T14:29:26Z</time></trkpt><trkpt lat="42.07506198419847" lon="14.763078120240863"><ele>1.0</ele><time>2026-04-04T14:29:31Z</time></trkpt><trkpt lat="42.07502523507907" lon="14.763166042961862"><ele>1.0</ele><time>2026-04-04T14:29:36Z</time></trkpt><trkpt lat="42.07499861165228" lon="14.763243456940263"><ele>1.0</ele><time>2026-04-04T14:29:40Z</time></trkpt><trkpt lat="42.07497323686211" lon="14.763323745992762"><ele>0.9999999999999999</ele><time>2026-04-04T14:29:44Z</time></trkpt><trkpt lat="42.074951082403366" lon="14.76340793816899"><ele>1.0</ele><time>2026-04-04T14:29:48Z</time></trkpt><trkpt lat="42.07492998941924" lon="14.76349098901432"><ele>1.0</ele><time>2026-04-04T14:29:52Z</time></trkpt><trkpt lat="42.07490145107899" lon="14.763589329315424"><ele>0.9999999999999999</ele><time>2026-04-04T14:29:57Z</time></trkpt><trkpt lat="42.07487211526034" lon="14.763684035920063"><ele>1.0</ele><time>2026-04-04T14:30:02Z</time></trkpt><trkpt lat="42.074840217601874" lon="14.763775777082717"><ele>1.0</ele><time>2026-04-04T14:30:07Z</time></trkpt><trkpt lat="42.07481685784408" lon="14.763855410979806"><ele>1.1428571428571428</ele><time>2026-04-04T14:30:11Z</time></trkpt><trkpt lat="42.07479259132172" lon="14.763934209253543"><ele>1.2857142857142856</ele><time>2026-04-04T14:30:15Z</time></trkpt><trkpt lat="42.07477535154844" lon="14.764018897790486"><ele>1.4285714285714284</ele><time>2026-04-04T14:30:19Z</time></trkpt><trkpt lat="42.074747664150834" lon="14.764116465629396"><ele>1.5714285714285714</ele><time>2026-04-04T14:30:24Z</time></trkpt><trkpt lat="42.07472506496441" lon="14.764201407395687"><ele>1.714285714285714</ele><time>2026-04-04T14:30:29Z</time></trkpt><trkpt lat="42.074707910229144" lon="14.764296327588799"><ele>1.857142857142857</ele><time>2026-04-04T14:30:34Z</time></trkpt><trkpt lat="42.074685187941874" lon="14.764386575693052"><ele>2.0</ele><time>2026-04-04T14:30:39Z</time></trkpt><trkpt lat="42.07465950729316" lon="14.764472688507333"><ele>2.142857142857143</ele><time>2026-04-04T14:30:44Z</time></trkpt><trkpt lat="42.074633776541795" lon="14.764563194389128"><ele>2.2857142857142856</ele><time>2026-04-04T14:30:49Z</time></trkpt><trkpt lat="42.07461560041569" lon="14.764654548151313"><ele>2.4285714285714284</ele><time>2026-04-04T14:30:54Z</time></trkpt><trkpt lat="42.07458604063997" lon="14.764737401335857"><ele>2.571428571428571</ele><time>2026-04-04T14:30:59Z</time></trkpt><trkpt lat="42.07456596888463" lon="14.76482873279648"><ele>2.7142857142857144</ele><time>2026-04-04T14:31:04Z</time></trkpt><trkpt lat="42.074537145448275" lon="14.764913084151361"><ele>2.8571428571428568</ele><time>2026-04-04T14:31:09Z</time></trkpt><trkpt lat="42.07450599879614" lon="14.765010932701829"><ele>3.0</ele><time>2026-04-04T14:31:14Z</time></trkpt><trkpt lat="42.07448160940049" lon="14.765109435365263"><ele>2.8571428571428568</ele><time>2026-04-04T14:31:19Z</time></trkpt><trkpt lat="42.074449990322265" lon="14.765205179474178"><ele>2.7142857142857144</ele><time>2026-04-04T14:31:24Z</time></trkpt><trkpt lat="42.07442222822847" lon="14.765284347418149"><ele>2.571428571428571</ele><time>2026-04-04T14:31:28Z</time></trkpt><trkpt lat="42.074392720328994" lon="14.76537952248455"><ele>2.4285714285714284</ele><time>2026-04-04T14:31:33Z</time></trkpt><trkpt lat="42.074355742305485" lon="14.76547243018489"><ele>2.2857142857142856</ele><time>2026-04-04T14:31:38Z</time></trkpt><trkpt lat="42.07431998093689" lon="14.765563512729491"><ele>2.142857142857143</ele><time>2026-04-04T14:31:43Z</time></trkpt><trkpt lat="42.07430411775605" lon="14.765647508596734"><ele>2.0</ele><time>2026-04-04T14:31:47Z</time></trkpt><trkpt lat="42.07427514467382" lon="14.765741268302387"><ele>2.0</ele><time>2026-04-04T14:31:52Z</time></trkpt><trkpt lat="42.07424714911873" lon="14.765817266274176"><ele>1.9999999999999998</ele><time>2026-04-04T14:31:56Z</time></trkpt><trkpt lat="42.0742315658521" lon="14.765900020517329"><ele>2.0</ele><time>2026-04-04T14:32:00Z</time></trkpt><trkpt lat="42.07420370620282" lon="14.765994083630577"><ele>2.0</ele><time>2026-04-04T14:32:05Z</time></trkpt><trkpt lat="42.074178871518335" lon="14.766080278774918"><ele>1.9999999999999998</ele><time>2026-04-04T14:32:10Z</time></trkpt><trkpt lat="42.07415760693652" lon="14.766174439311126"><ele>2.0</ele><time>2026-04-04T14:32:15Z</time></trkpt><trkpt lat="42.07412687015413" lon="14.766267233066992"><ele>2.0</ele><time>2026-04-04T14:32:20Z</time></trkpt><trkpt lat="42.074083888799784" lon="14.766350999562768"><ele>2.0</ele><time>2026-04-04T14:32:25Z</time></trkpt><trkpt lat="42.07404117581873" lon="14.766431905630771"><ele>1.9999999999999998</ele><time>2026-04-04T14:32:30Z</time></trkpt><trkpt lat="42.07400780462064" lon="14.766516538481243"><ele>2.0</ele><time>2026-04-04T14:32:35Z</time></trkpt><trkpt lat="42.07397004543779" lon="14.766608243070543"><ele>2.0</ele><time>2026-04-04T14:32:40Z</time></trkpt><trkpt lat="42.073935460732756" lon="14.766679422873143"><ele>1.9999999999999998</ele><time>2026-04-04T14:32:44Z</time></trkpt><trkpt lat="42.07390527380716" lon="14.76677590649511"><ele>2.0</ele><time>2026-04-04T14:32:49Z</time></trkpt><trkpt lat="42.0738684326467" lon="14.766860480649111"><ele>2.0</ele><time>2026-04-04T14:32:54Z</time></trkpt><trkpt lat="42.073839313025424" lon="14.766946146364335"><ele>2.2857142857142856</ele><time>2026-04-04T14:32:59Z</time></trkpt><trkpt lat="42.07382208970252" lon="14.767037939280113"><ele>2.571428571428571</ele><time>2026-04-04T14:33:04Z</time></trkpt><trkpt lat="42.07382443611934" lon="14.767127513778647"><ele>2.8571428571428568</ele><time>2026-04-04T14:33:09Z</time></trkpt><trkpt lat="42.07384814743673" lon="14.767213185617644"><ele>3.142857142857143</ele><time>2026-04-04T14:33:19Z</time></trkpt><trkpt lat="42.073905570868696" lon="14.767163148287459"><ele>3.428571428571428</ele><time>2026-04-04T14:33:25Z</time></trkpt><trkpt lat="42.07390951058374" lon="14.76725731377729"><ele>3.714285714285714</ele><time>2026-04-04T14:33:29Z</time></trkpt><trkpt lat="42.07389105391333" lon="14.767168996644957"><ele>4.0</ele><time>2026-04-04T14:36:11Z</time></trkpt><trkpt lat="42.07382038143958" lon="14.767179495592705"><ele>3.9999999999999996</ele><time>2026-04-04T14:36:15Z</time></trkpt><trkpt lat="42.07375742511382" lon="14.7672332495954"><ele>4.0</ele><time>2026-04-04T14:36:22Z</time></trkpt><trkpt lat="42.073708186895054" lon="14.767309283399994"><ele>4.0</ele><time>2026-04-04T14:36:27Z</time></trkpt><trkpt lat="42.07368120452567" lon="14.76739810915065"><ele>4.0</ele><time>2026-04-04T14:36:32Z</time></trkpt><trkpt lat="42.07364661123833" lon="14.767491003531191"><ele>3.9999999999999996</ele><time>2026-04-04T14:36:37Z</time></trkpt><trkpt lat="42.07360796528784" lon="14.767581700088439"><ele>4.0</ele><time>2026-04-04T14:36:42Z</time></trkpt><trkpt lat="42.073577338813394" lon="14.767678641639447"><ele>3.4999999999999996</ele><time>2026-04-04T14:36:47Z</time></trkpt><trkpt lat="42.07355419868095" lon="14.76777565053543"><ele>3.0</ele><time>2026-04-04T14:36:52Z</time></trkpt><trkpt lat="42.07352540533503" lon="14.76787380802278"><ele>2.5</ele><time>2026-04-04T14:36:57Z</time></trkpt><trkpt lat="42.073507838613175" lon="14.76797906482838"><ele>2.0</ele><time>2026-04-04T14:37:02Z</time></trkpt><trkpt lat="42.073481513057125" lon="14.768064518159711"><ele>1.5</ele><time>2026-04-04T14:37:07Z</time></trkpt><trkpt lat="42.07344083075172" lon="14.76814799267369"><ele>1.0</ele><time>2026-04-04T14:37:12Z</time></trkpt><trkpt lat="42.07342426407167" lon="14.76824683825328"><ele>1.0</ele><time>2026-04-04T14:37:17Z</time></trkpt><trkpt lat="42.07339102865288" lon="14.768336400900722"><ele>0.9999999999999999</ele><time>2026-04-04T14:37:22Z</time></trkpt><trkpt lat="42.07336459098588" lon="14.76843529773993"><ele>1.0</ele><time>2026-04-04T14:37:27Z</time></trkpt><trkpt lat="42.0733375814049" lon="14.768515473909568"><ele>1.0</ele><time>2026-04-04T14:37:31Z</time></trkpt><trkpt lat="42.073302754626106" lon="14.76860296432079"><ele>0.9999999999999999</ele><time>2026-04-04T14:37:36Z</time></trkpt><trkpt lat="42.07327296007332" lon="14.768694892715345"><ele>1.0</ele><time>2026-04-04T14:37:41Z</time></trkpt><trkpt lat="42.07325573661594" lon="14.76877799871739"><ele>1.0</ele><time>2026-04-04T14:37:45Z</time></trkpt><trkpt lat="42.07324064791214" lon="14.768865433147193"><ele>1.0</ele><time>2026-04-04T14:37:49Z</time></trkpt><trkpt lat="42.07321068896983" lon="14.76895293324156"><ele>0.9999999999999999</ele><time>2026-04-04T14:37:54Z</time></trkpt><trkpt lat="42.07317659994552" lon="14.769044005223996"><ele>1.0</ele><time>2026-04-04T14:37:59Z</time></trkpt><trkpt lat="42.07315927316595" lon="14.769142827871999"><ele>1.0</ele><time>2026-04-04T14:38:04Z</time></trkpt><trkpt lat="42.073137300251155" lon="14.76923475963582"><ele>0.9999999999999999</ele><time>2026-04-04T14:38:09Z</time></trkpt><trkpt lat="42.073104334925276" lon="14.769320831264135"><ele>1.0</ele><time>2026-04-04T14:38:14Z</time></trkpt><trkpt lat="42.07307648101436" lon="14.76941245921619"><ele>1.0</ele><time>2026-04-04T14:38:19Z</time></trkpt><trkpt lat="42.07304432861929" lon="14.769500440751626"><ele>0.8571428571428571</ele><time>2026-04-04T14:38:24Z</time></trkpt><trkpt lat="42.07300505239156" lon="14.769579861984349"><ele>0.7142857142857142</ele><time>2026-04-04T14:38:29Z</time></trkpt><trkpt lat="42.07297205310687" lon="14.769667217582029"><ele>0.5714285714285714</ele><time>2026-04-04T14:38:34Z</time></trkpt><trkpt lat="42.07292852004033" lon="14.76974930354976"><ele>0.42857142857142855</ele><time>2026-04-04T14:38:39Z</time></trkpt><trkpt lat="42.07288851375769" lon="14.769835676218158"><ele>0.2857142857142857</ele><time>2026-04-04T14:38:44Z</time></trkpt><trkpt lat="42.07286815780042" lon="14.769934319399812"><ele>0.14285714285714285</ele><time>2026-04-04T14:38:49Z</time></trkpt><trkpt lat="42.07283857235304" lon="14.770021199620786"><ele>0.0</ele><time>2026-04-04T14:38:54Z</time></trkpt><trkpt lat="42.072812028034456" lon="14.770115674065783"><ele>0.0</ele><time>2026-04-04T14:38:59Z</time></trkpt><trkpt lat="42.07279200724092" lon="14.770212199109723"><ele>0.0</ele><time>2026-04-04T14:39:04Z</time></trkpt><trkpt lat="42.072771256152514" lon="14.770306577340204"><ele>0.0</ele><time>2026-04-04T14:39:09Z</time></trkpt><trkpt lat="42.07273312191797" lon="14.770396041565792"><ele>0.0</ele><time>2026-04-04T14:39:14Z</time></trkpt><trkpt lat="42.07270483484213" lon="14.770486255647754"><ele>0.0</ele><time>2026-04-04T14:39:19Z</time></trkpt><trkpt lat="42.07269304368884" lon="14.770584435684059"><ele>0.0</ele><time>2026-04-04T14:39:24Z</time></trkpt><trkpt lat="42.07267879346486" lon="14.770683017511312"><ele>0.0</ele><time>2026-04-04T14:39:29Z</time></trkpt><trkpt lat="42.0726489590439" lon="14.77077586707642"><ele>0.0</ele><time>2026-04-04T14:39:34Z</time></trkpt><trkpt lat="42.07261657663213" lon="14.770868111951069"><ele>0.0</ele><time>2026-04-04T14:39:39Z</time></trkpt><trkpt lat="42.07256418332602" lon="14.770944779678324"><ele>0.0</ele><time>2026-04-04T14:39:44Z</time></trkpt><trkpt lat="42.07252195683899" lon="14.771031310266903"><ele>0.0</ele><time>2026-04-04T14:39:49Z</time></trkpt><trkpt lat="42.07249728263803" lon="14.771109617115066"><ele>0.0</ele><time>2026-04-04T14:39:53Z</time></trkpt><trkpt lat="42.072482596434554" lon="14.771197937057684"><ele>0.0</ele><time>2026-04-04T14:39:57Z</time></trkpt><trkpt lat="42.072475116770924" lon="14.77128368171558"><ele>0.0</ele><time>2026-04-04T14:40:01Z</time></trkpt><trkpt lat="42.07245298376177" lon="14.771364407927233"><ele>0.0</ele><time>2026-04-04T14:40:05Z</time></trkpt><trkpt lat="42.0724377869024" lon="14.771447344623434"><ele>0.0</ele><time>2026-04-04T14:40:09Z</time></trkpt><trkpt lat="42.072417049331776" lon="14.771530250005457"><ele>0.0</ele><time>2026-04-04T14:40:13Z</time></trkpt><trkpt lat="42.072394960734044" lon="14.771612428721136"><ele>0.0</ele><time>2026-04-04T14:40:17Z</time></trkpt><trkpt lat="42.07236523478579" lon="14.771707920819672"><ele>0.0</ele><time>2026-04-04T14:40:22Z</time></trkpt><trkpt lat="42.07232534261173" lon="14.771797153139612"><ele>0.0</ele><time>2026-04-04T14:40:27Z</time></trkpt><trkpt lat="42.0722893102353" lon="14.771885653456945"><ele>0.0</ele><time>2026-04-04T14:40:32Z</time></trkpt><trkpt lat="42.072257053983684" lon="14.77197107247331"><ele>0.0</ele><time>2026-04-04T14:40:37Z</time></trkpt><trkpt lat="42.072231284383825" lon="14.772061660324221"><ele>0.0</ele><time>2026-04-04T14:40:42Z</time></trkpt><trkpt lat="42.07220391296705" lon="14.772151864740387"><ele>0.0</ele><time>2026-04-04T14:40:47Z</time></trkpt><trkpt lat="42.07217175946846" lon="14.772240024528438"><ele>0.0</ele><time>2026-04-04T14:40:52Z</time></trkpt><trkpt lat="42.07214357163746" lon="14.772332702438256"><ele>0.0</ele><time>2026-04-04T14:40:57Z</time></trkpt><trkpt lat="42.0721246592232" lon="14.772427853979226"><ele>0.0</ele><time>2026-04-04T14:41:02Z</time></trkpt><trkpt lat="42.072105807794536" lon="14.772522555425361"><ele>0.0</ele><time>2026-04-04T14:41:07Z</time></trkpt><trkpt lat="42.07208799929173" lon="14.772617350214151"><ele>0.2857142857142857</ele><time>2026-04-04T14:41:12Z</time></trkpt><trkpt lat="42.07205813310703" lon="14.772711924065035"><ele>0.5714285714285714</ele><time>2026-04-04T14:41:17Z</time></trkpt><trkpt lat="42.072037260938814" lon="14.77280316388298"><ele>0.8571428571428571</ele><time>2026-04-04T14:41:22Z</time></trkpt><trkpt lat="42.072016148731024" lon="14.772894496035475"><ele>1.1428571428571428</ele><time>2026-04-04T14:41:27Z</time></trkpt><trkpt lat="42.0719884524503" lon="14.772981143552952"><ele>1.4285714285714284</ele><time>2026-04-04T14:41:32Z</time></trkpt><trkpt lat="42.07195421575491" lon="14.7730672601448"><ele>1.7142857142857142</ele><time>2026-04-04T14:41:37Z</time></trkpt><trkpt lat="42.071934656110045" lon="14.77316263652624"><ele>2.0</ele><time>2026-04-04T14:41:42Z</time></trkpt><trkpt lat="42.07190097434414" lon="14.773249160615432"><ele>2.0</ele><time>2026-04-04T14:41:47Z</time></trkpt><trkpt lat="42.071875920642064" lon="14.773339750684144"><ele>1.9999999999999998</ele><time>2026-04-04T14:41:52Z</time></trkpt><trkpt lat="42.07184833742247" lon="14.773426317102876"><ele>2.0</ele><time>2026-04-04T14:41:57Z</time></trkpt><trkpt lat="42.07182956599974" lon="14.773520790719113"><ele>2.0</ele><time>2026-04-04T14:42:02Z</time></trkpt><trkpt lat="42.071805552344706" lon="14.773613205811241"><ele>1.9999999999999998</ele><time>2026-04-04T14:42:07Z</time></trkpt><trkpt lat="42.07177717014579" lon="14.773700157400826"><ele>2.0</ele><time>2026-04-04T14:42:12Z</time></trkpt><trkpt lat="42.071760089351095" lon="14.773782141365146"><ele>2.0</ele><time>2026-04-04T14:42:16Z</time></trkpt><trkpt lat="42.071721579271504" lon="14.773870004864127"><ele>1.857142857142857</ele><time>2026-04-04T14:42:21Z</time></trkpt><trkpt lat="42.07167789686311" lon="14.77395189217975"><ele>1.714285714285714</ele><time>2026-04-04T14:42:26Z</time></trkpt><trkpt lat="42.07163198536965" lon="14.774031829818565"><ele>1.5714285714285714</ele><time>2026-04-04T14:42:31Z</time></trkpt><trkpt lat="42.07160128272855" lon="14.774116923142138"><ele>1.4285714285714284</ele><time>2026-04-04T14:42:36Z</time></trkpt><trkpt lat="42.07156964991199" lon="14.774204798570189"><ele>1.2857142857142856</ele><time>2026-04-04T14:42:41Z</time></trkpt><trkpt lat="42.07153227368998" lon="14.774279191835081"><ele>1.1428571428571428</ele><time>2026-04-04T14:42:46Z</time></trkpt><trkpt lat="42.07149978152998" lon="14.77435695055113"><ele>1.0</ele><time>2026-04-04T14:42:51Z</time></trkpt><trkpt lat="42.071470915100846" lon="14.77443665675908"><ele>0.8571428571428571</ele><time>2026-04-04T14:42:56Z</time></trkpt><trkpt lat="42.07144757978948" lon="14.774521241530831"><ele>0.7142857142857142</ele><time>2026-04-04T14:43:01Z</time></trkpt><trkpt lat="42.07143157600639" lon="14.774612812588805"><ele>0.5714285714285714</ele><time>2026-04-04T14:43:06Z</time></trkpt><trkpt lat="42.07142435191677" lon="14.774710459667135"><ele>0.42857142857142855</ele><time>2026-04-04T14:43:11Z</time></trkpt><trkpt lat="42.07139505330355" lon="14.774795772036867"><ele>0.2857142857142857</ele><time>2026-04-04T14:43:16Z</time></trkpt><trkpt lat="42.071379941511076" lon="14.774891711256695"><ele>0.14285714285714285</ele><time>2026-04-04T14:43:21Z</time></trkpt><trkpt lat="42.071356324749125" lon="14.774988206770994"><ele>0.0</ele><time>2026-04-04T14:43:26Z</time></trkpt><trkpt lat="42.071332774777716" lon="14.775084902277802"><ele>0.0</ele><time>2026-04-04T14:43:31Z</time></trkpt><trkpt lat="42.0713047254815" lon="14.775174978349483"><ele>0.0</ele><time>2026-04-04T14:43:36Z</time></trkpt><trkpt lat="42.071267928033" lon="14.775263009205572"><ele>0.0</ele><time>2026-04-04T14:43:41Z</time></trkpt><trkpt lat="42.07123181889834" lon="14.77535013828796"><ele>0.0</ele><time>2026-04-04T14:43:46Z</time></trkpt><trkpt lat="42.07121319899323" lon="14.775445818896117"><ele>0.0</ele><time>2026-04-04T14:43:51Z</time></trkpt><trkpt lat="42.071175409716545" lon="14.775527325013636"><ele>0.0</ele><time>2026-04-04T14:43:56Z</time></trkpt><trkpt lat="42.071155704310165" lon="14.775620928975481"><ele>0.0</ele><time>2026-04-04T14:44:01Z</time></trkpt><trkpt lat="42.07112786308809" lon="14.775709598479667"><ele>0.14285714285714285</ele><time>2026-04-04T14:44:06Z</time></trkpt><trkpt lat="42.071099205521676" lon="14.775793747433735"><ele>0.2857142857142857</ele><time>2026-04-04T14:44:11Z</time></trkpt><trkpt lat="42.0710775528195" lon="14.775881928732804"><ele>0.42857142857142855</ele><time>2026-04-04T14:44:16Z</time></trkpt><trkpt lat="42.07105231747292" lon="14.775966176722909"><ele>0.5714285714285714</ele><time>2026-04-04T14:44:21Z</time></trkpt><trkpt lat="42.071031869952584" lon="14.776048951973861"><ele>0.7142857142857142</ele><time>2026-04-04T14:44:26Z</time></trkpt><trkpt lat="42.0710127209781" lon="14.77613022617536"><ele>0.8571428571428571</ele><time>2026-04-04T14:44:34Z</time></trkpt><trkpt lat="42.070999654989734" lon="14.776218315675845"><ele>1.0</ele><time>2026-04-04T14:44:39Z</time></trkpt><trkpt lat="42.07098234143011" lon="14.776304567170445"><ele>1.0</ele><time>2026-04-04T14:44:44Z</time></trkpt><trkpt lat="42.07093859568485" lon="14.776376316060198"><ele>0.9999999999999999</ele><time>2026-04-04T14:44:49Z</time></trkpt><trkpt lat="42.07090548941191" lon="14.776456901069812"><ele>1.0</ele><time>2026-04-04T14:44:54Z</time></trkpt><trkpt lat="42.070857243888774" lon="14.776531785583526"><ele>1.0</ele><time>2026-04-04T14:44:59Z</time></trkpt><trkpt lat="42.070825794413" lon="14.776618551998908"><ele>0.9999999999999999</ele><time>2026-04-04T14:45:04Z</time></trkpt><trkpt lat="42.07080470582452" lon="14.776709232391323"><ele>1.0</ele><time>2026-04-04T14:45:09Z</time></trkpt><trkpt lat="42.07077943359685" lon="14.776800393734352"><ele>1.0</ele><time>2026-04-04T14:45:14Z</time></trkpt><trkpt lat="42.07074499311278" lon="14.776885818558682"><ele>1.1428571428571428</ele><time>2026-04-04T14:45:19Z</time></trkpt><trkpt lat="42.07072503699965" lon="14.776972542316209"><ele>1.2857142857142856</ele><time>2026-04-04T14:45:24Z</time></trkpt><trkpt lat="42.07070204357718" lon="14.777056619023206"><ele>1.4285714285714284</ele><time>2026-04-04T14:45:29Z</time></trkpt><trkpt lat="42.07068166480908" lon="14.777142307032664"><ele>1.5714285714285714</ele><time>2026-04-04T14:45:34Z</time></trkpt><trkpt lat="42.07066443117134" lon="14.777235285079728"><ele>1.714285714285714</ele><time>2026-04-04T14:45:39Z</time></trkpt><trkpt lat="42.07064138819643" lon="14.77732280060237"><ele>1.857142857142857</ele><time>2026-04-04T14:45:44Z</time></trkpt><trkpt lat="42.070617096304126" lon="14.777406872693046"><ele>2.0</ele><time>2026-04-04T14:45:49Z</time></trkpt><trkpt lat="42.07058257819113" lon="14.777483074157752"><ele>2.0</ele><time>2026-04-04T14:45:54Z</time></trkpt><trkpt lat="42.07051850807756" lon="14.777510889720794"><ele>1.9999999999999998</ele><time>2026-04-04T14:45:59Z</time></trkpt><trkpt lat="42.07045912115763" lon="14.777559121009906"><ele>2.0</ele><time>2026-04-04T14:46:04Z</time></trkpt><trkpt lat="42.07040212245784" lon="14.77761248237162"><ele>2.0</ele><time>2026-04-04T14:46:09Z</time></trkpt><trkpt lat="42.07034877106438" lon="14.777668497984637"><ele>1.9999999999999998</ele><time>2026-04-04T14:46:14Z</time></trkpt><trkpt lat="42.07028291677874" lon="14.777662931377249"><ele>2.0</ele><time>2026-04-04T14:46:19Z</time></trkpt><trkpt lat="42.070218993398974" lon="14.777631661279298"><ele>2.0</ele><time>2026-04-04T14:46:24Z</time></trkpt><trkpt lat="42.07015249845492" lon="14.777648340479688"><ele>2.0</ele><time>2026-04-04T14:46:29Z</time></trkpt><trkpt lat="42.070100627473906" lon="14.77771699487927"><ele>1.9999999999999998</ele><time>2026-04-04T14:46:34Z</time></trkpt><trkpt lat="42.070041569184596" lon="14.777670756386955"><ele>2.0</ele><time>2026-04-04T14:46:39Z</time></trkpt><trkpt lat="42.06997925252382" lon="14.777654028378562"><ele>2.0</ele><time>2026-04-04T14:46:43Z</time></trkpt><trkpt lat="42.0699040136823" lon="14.777625200137807"><ele>1.9999999999999998</ele><time>2026-04-04T14:46:48Z</time></trkpt><trkpt lat="42.06983867783117" lon="14.777574812055647"><ele>2.0</ele><time>2026-04-04T14:46:53Z</time></trkpt><trkpt lat="42.06977375530082" lon="14.777527578680518"><ele>2.0</ele><time>2026-04-04T14:46:58Z</time></trkpt><trkpt lat="42.06971127086185" lon="14.77746920133479"><ele>2.0</ele><time>2026-04-04T14:47:03Z</time></trkpt><trkpt lat="42.0696508624725" lon="14.77741148444881"><ele>1.9999999999999998</ele><time>2026-04-04T14:47:08Z</time></trkpt><trkpt lat="42.06959041436246" lon="14.777346645252129"><ele>2.0</ele><time>2026-04-04T14:47:13Z</time></trkpt><trkpt lat="42.06952377416093" lon="14.777295454688304"><ele>2.0</ele><time>2026-04-04T14:47:18Z</time></trkpt><trkpt lat="42.069471582991625" lon="14.77723928468496"><ele>1.9999999999999998</ele><time>2026-04-04T14:47:23Z</time></trkpt><trkpt lat="42.069412949735415" lon="14.777190444561686"><ele>2.0</ele><time>2026-04-04T14:47:28Z</time></trkpt><trkpt lat="42.069353632589305" lon="14.777154215772931"><ele>2.0</ele><time>2026-04-04T14:47:33Z</time></trkpt><trkpt lat="42.069294881074114" lon="14.77710582438603"><ele>2.0</ele><time>2026-04-04T14:47:38Z</time></trkpt><trkpt lat="42.069231208516285" lon="14.777061229942861"><ele>1.9999999999999998</ele><time>2026-04-04T14:47:43Z</time></trkpt><trkpt lat="42.06915829155984" lon="14.77702834329498"><ele>2.0</ele><time>2026-04-04T14:47:48Z</time></trkpt><trkpt lat="42.06909737256608" lon="14.776976580923655"><ele>2.0</ele><time>2026-04-04T14:47:53Z</time></trkpt><trkpt lat="42.06903709194153" lon="14.776924050730003"><ele>1.9999999999999998</ele><time>2026-04-04T14:47:58Z</time></trkpt><trkpt lat="42.068975683481256" lon="14.776876525908559"><ele>2.0</ele><time>2026-04-04T14:48:03Z</time></trkpt><trkpt lat="42.06891414203922" lon="14.776830047740422"><ele>2.0</ele><time>2026-04-04T14:48:08Z</time></trkpt><trkpt lat="42.06885014252443" lon="14.776799002481878"><ele>2.142857142857143</ele><time>2026-04-04T14:48:13Z</time></trkpt><trkpt lat="42.06879034707239" lon="14.776754090554881"><ele>2.2857142857142856</ele><time>2026-04-04T14:48:18Z</time></trkpt><trkpt lat="42.06872710853084" lon="14.77671950880084"><ele>2.4285714285714284</ele><time>2026-04-04T14:48:23Z</time></trkpt><trkpt lat="42.06866377654324" lon="14.77667058896311"><ele>2.571428571428571</ele><time>2026-04-04T14:48:28Z</time></trkpt><trkpt lat="42.06859641150038" lon="14.776626978377653"><ele>2.7142857142857144</ele><time>2026-04-04T14:48:33Z</time></trkpt><trkpt lat="42.068530907793146" lon="14.776593083863872"><ele>2.8571428571428568</ele><time>2026-04-04T14:48:38Z</time></trkpt><trkpt lat="42.06846618138061" lon="14.77654457693216"><ele>3.0</ele><time>2026-04-04T14:48:43Z</time></trkpt><trkpt lat="42.06840428199127" lon="14.776495444295108"><ele>2.9999999999999996</ele><time>2026-04-04T14:48:48Z</time></trkpt><trkpt lat="42.06834027640245" lon="14.776449109438973"><ele>3.0</ele><time>2026-04-04T14:48:53Z</time></trkpt><trkpt lat="42.06828688764193" lon="14.776401485286915"><ele>3.0</ele><time>2026-04-04T14:48:58Z</time></trkpt><trkpt lat="42.06823012330257" lon="14.776356447432143"><ele>3.0</ele><time>2026-04-04T14:49:02Z</time></trkpt><trkpt lat="42.068162998710854" lon="14.776303481001031"><ele>3.0</ele><time>2026-04-04T14:49:07Z</time></trkpt><trkpt lat="42.068098275643166" lon="14.776259183160807"><ele>2.9999999999999996</ele><time>2026-04-04T14:49:12Z</time></trkpt><trkpt lat="42.06803176127569" lon="14.776226042433429"><ele>3.0</ele><time>2026-04-04T14:49:17Z</time></trkpt><trkpt lat="42.06796137358894" lon="14.776161624007486"><ele>3.2857142857142856</ele><time>2026-04-04T14:49:23Z</time></trkpt><trkpt lat="42.06789940647072" lon="14.776117042895361"><ele>3.571428571428571</ele><time>2026-04-04T14:49:27Z</time></trkpt><trkpt lat="42.0678414270197" lon="14.776066967823326"><ele>3.8571428571428568</ele><time>2026-04-04T14:49:32Z</time></trkpt><trkpt lat="42.067773563776996" lon="14.776034498317376"><ele>4.142857142857142</ele><time>2026-04-04T14:49:37Z</time></trkpt><trkpt lat="42.067705540657364" lon="14.77599734116889"><ele>4.428571428571429</ele><time>2026-04-04T14:49:42Z</time></trkpt><trkpt lat="42.067659119686965" lon="14.775928971186032"><ele>4.714285714285714</ele><time>2026-04-04T14:49:47Z</time></trkpt><trkpt lat="42.06760109930986" lon="14.775884063072619"><ele>5.0</ele><time>2026-04-04T14:49:51Z</time></trkpt><trkpt lat="42.06754118342725" lon="14.77585280246589"><ele>4.857142857142857</ele><time>2026-04-04T14:49:55Z</time></trkpt><trkpt lat="42.06747638432626" lon="14.775821539379361"><ele>4.714285714285714</ele><time>2026-04-04T14:49:59Z</time></trkpt><trkpt lat="42.067413412552085" lon="14.775774083818316"><ele>4.571428571428571</ele><time>2026-04-04T14:50:04Z</time></trkpt><trkpt lat="42.067349118595274" lon="14.77574394935131"><ele>4.428571428571429</ele><time>2026-04-04T14:50:10Z</time></trkpt><trkpt lat="42.067320250623226" lon="14.7756605545613"><ele>4.285714285714286</ele><time>2026-04-04T14:50:13Z</time></trkpt><trkpt lat="42.067246065817166" lon="14.775627734607268"><ele>4.142857142857142</ele><time>2026-04-04T14:50:19Z</time></trkpt><trkpt lat="42.06718788179264" lon="14.775583387306114"><ele>4.0</ele><time>2026-04-04T14:50:24Z</time></trkpt><trkpt lat="42.0671361235897" lon="14.77553159308793"><ele>4.0</ele><time>2026-04-04T14:50:29Z</time></trkpt><trkpt lat="42.06707639153889" lon="14.775485530199912"><ele>3.9999999999999996</ele><time>2026-04-04T14:50:34Z</time></trkpt><trkpt lat="42.06701071613357" lon="14.775464445401054"><ele>4.0</ele><time>2026-04-04T14:50:39Z</time></trkpt><trkpt lat="42.06695216636066" lon="14.77541519991908"><ele>4.0</ele><time>2026-04-04T14:50:45Z</time></trkpt><trkpt lat="42.06688582793119" lon="14.775384828436348"><ele>3.9999999999999996</ele><time>2026-04-04T14:50:50Z</time></trkpt><trkpt lat="42.066819083221624" lon="14.775368392046644"><ele>4.0</ele><time>2026-04-04T14:50:55Z</time></trkpt><trkpt lat="42.06674890505782" lon="14.77537070112615"><ele>4.0</ele><time>2026-04-04T14:51:00Z</time></trkpt><trkpt lat="42.066678795852916" lon="14.775355030255556"><ele>3.9999999999999996</ele><time>2026-04-04T14:51:05Z</time></trkpt><trkpt lat="42.066634616723626" lon="14.775416626790038"><ele>4.0</ele><time>2026-04-04T14:51:09Z</time></trkpt><trkpt lat="42.06659620581246" lon="14.775500319774054"><ele>4.0</ele><time>2026-04-04T14:51:14Z</time></trkpt><trkpt lat="42.06655067097796" lon="14.775576868252415"><ele>4.0</ele><time>2026-04-04T14:51:19Z</time></trkpt><trkpt lat="42.06650861538953" lon="14.775655214715075"><ele>3.9999999999999996</ele><time>2026-04-04T14:51:24Z</time></trkpt><trkpt lat="42.06647142825557" lon="14.775770938376459"><ele>4.0</ele><time>2026-04-04T14:51:30Z</time></trkpt><trkpt lat="42.066435886038526" lon="14.775863897777752"><ele>3.8571428571428568</ele><time>2026-04-04T14:51:35Z</time></trkpt><trkpt lat="42.06640452429755" lon="14.775953371706489"><ele>3.714285714285714</ele><time>2026-04-04T14:51:40Z</time></trkpt><trkpt lat="42.06636963534457" lon="14.776030283747142"><ele>3.571428571428571</ele><time>2026-04-04T14:51:45Z</time></trkpt><trkpt lat="42.06634092443028" lon="14.776106646707781"><ele>3.4285714285714284</ele><time>2026-04-04T14:51:50Z</time></trkpt><trkpt lat="42.066305567752565" lon="14.776190668628871"><ele>3.2857142857142856</ele><time>2026-04-04T14:51:55Z</time></trkpt><trkpt lat="42.06627514640652" lon="14.776265764405256"><ele>3.1428571428571423</ele><time>2026-04-04T14:52:00Z</time></trkpt><trkpt lat="42.06623387724823" lon="14.776345881227765"><ele>3.0</ele><time>2026-04-04T14:52:05Z</time></trkpt><trkpt lat="42.06620277368335" lon="14.776432913187088"><ele>2.9999999999999996</ele><time>2026-04-04T14:52:10Z</time></trkpt><trkpt lat="42.066167300781565" lon="14.776515057884026"><ele>3.0</ele><time>2026-04-04T14:52:15Z</time></trkpt><trkpt lat="42.06613678459715" lon="14.776597561811718"><ele>3.0</ele><time>2026-04-04T14:52:20Z</time></trkpt><trkpt lat="42.06610351986068" lon="14.776677396213124"><ele>3.0</ele><time>2026-04-04T14:52:25Z</time></trkpt><trkpt lat="42.06607038895572" lon="14.776758673680266"><ele>3.0</ele><time>2026-04-04T14:52:30Z</time></trkpt><trkpt lat="42.06604091431029" lon="14.776846965502957"><ele>2.9999999999999996</ele><time>2026-04-04T14:52:35Z</time></trkpt><trkpt lat="42.066004268802544" lon="14.77693719624867"><ele>3.0</ele><time>2026-04-04T14:52:40Z</time></trkpt><trkpt lat="42.06596809145722" lon="14.777017262325085"><ele>2.8571428571428568</ele><time>2026-04-04T14:52:45Z</time></trkpt><trkpt lat="42.06593787418594" lon="14.777103421676745"><ele>2.7142857142857144</ele><time>2026-04-04T14:52:50Z</time></trkpt><trkpt lat="42.065904822905345" lon="14.777182624390328"><ele>2.571428571428571</ele><time>2026-04-04T14:52:55Z</time></trkpt><trkpt lat="42.06587905092315" lon="14.777261554414"><ele>2.4285714285714284</ele><time>2026-04-04T14:53:00Z</time></trkpt><trkpt lat="42.0658502990232" lon="14.777350528207092"><ele>2.2857142857142856</ele><time>2026-04-04T14:53:06Z</time></trkpt><trkpt lat="42.06581755834808" lon="14.777434809561582"><ele>2.142857142857143</ele><time>2026-04-04T14:53:11Z</time></trkpt><trkpt lat="42.06578707949442" lon="14.777518965462184"><ele>2.0</ele><time>2026-04-04T14:53:16Z</time></trkpt><trkpt lat="42.06574575218116" lon="14.777584731146916"><ele>2.142857142857143</ele><time>2026-04-04T14:53:20Z</time></trkpt><trkpt lat="42.06571276187497" lon="14.7776707052258"><ele>2.2857142857142856</ele><time>2026-04-04T14:53:25Z</time></trkpt><trkpt lat="42.065680064665145" lon="14.77775049008106"><ele>2.4285714285714284</ele><time>2026-04-04T14:53:30Z</time></trkpt><trkpt lat="42.06564877549781" lon="14.77783706148972"><ele>2.571428571428571</ele><time>2026-04-04T14:53:36Z</time></trkpt><trkpt lat="42.0656156681215" lon="14.777913008250147"><ele>2.7142857142857144</ele><time>2026-04-04T14:53:41Z</time></trkpt><trkpt lat="42.06558880720097" lon="14.777990695456811"><ele>2.8571428571428568</ele><time>2026-04-04T14:53:46Z</time></trkpt><trkpt lat="42.06555523436669" lon="14.778083515014831"><ele>3.0</ele><time>2026-04-04T14:53:52Z</time></trkpt><trkpt lat="42.06551932668985" lon="14.778153434113513"><ele>2.9999999999999996</ele><time>2026-04-04T14:53:57Z</time></trkpt><trkpt lat="42.065487574010696" lon="14.778233857421654"><ele>3.0</ele><time>2026-04-04T14:54:01.999Z</time></trkpt><trkpt lat="42.06545881221275" lon="14.778318266191429"><ele>3.0</ele><time>2026-04-04T14:54:06.999Z</time></trkpt><trkpt lat="42.06542540772971" lon="14.778393638037285"><ele>3.0</ele><time>2026-04-04T14:54:12Z</time></trkpt><trkpt lat="42.065393732338826" lon="14.778471714169967"><ele>3.0</ele><time>2026-04-04T14:54:17Z</time></trkpt><trkpt lat="42.065357201414685" lon="14.77855405902758"><ele>2.9999999999999996</ele><time>2026-04-04T14:54:22Z</time></trkpt><trkpt lat="42.065325886929394" lon="14.778641586540536"><ele>3.0</ele><time>2026-04-04T14:54:27Z</time></trkpt><trkpt lat="42.06529455755843" lon="14.778719784316978"><ele>2.8571428571428568</ele><time>2026-04-04T14:54:32Z</time></trkpt><trkpt lat="42.065269603676114" lon="14.778800432147177"><ele>2.7142857142857144</ele><time>2026-04-04T14:54:37Z</time></trkpt><trkpt lat="42.06523625594451" lon="14.778878161529232"><ele>2.571428571428571</ele><time>2026-04-04T14:54:42Z</time></trkpt><trkpt lat="42.06520935454431" lon="14.77895784267992"><ele>2.4285714285714284</ele><time>2026-04-04T14:54:47Z</time></trkpt><trkpt lat="42.065175627142516" lon="14.779047482353354"><ele>2.2857142857142856</ele><time>2026-04-04T14:54:53Z</time></trkpt><trkpt lat="42.0651504072147" lon="14.77913031988743"><ele>2.142857142857143</ele><time>2026-04-04T14:54:58Z</time></trkpt><trkpt lat="42.065116062068135" lon="14.779205804344521"><ele>2.0</ele><time>2026-04-04T14:55:03Z</time></trkpt><trkpt lat="42.06507570411154" lon="14.779290139116352"><ele>2.0</ele><time>2026-04-04T14:55:09Z</time></trkpt><trkpt lat="42.065043537465314" lon="14.779374130056233"><ele>1.9999999999999998</ele><time>2026-04-04T14:55:15Z</time></trkpt><trkpt lat="42.065012630059066" lon="14.779466671390788"><ele>2.0</ele><time>2026-04-04T14:55:21Z</time></trkpt><trkpt lat="42.06498622740809" lon="14.779545099614051"><ele>2.0</ele><time>2026-04-04T14:55:27Z</time></trkpt><trkpt lat="42.06496195081491" lon="14.779624737192785"><ele>1.9999999999999998</ele><time>2026-04-04T14:55:32Z</time></trkpt><trkpt lat="42.06492486620409" lon="14.779705708877719"><ele>2.0</ele><time>2026-04-04T14:55:37Z</time></trkpt><trkpt lat="42.06489376472861" lon="14.779785295025484"><ele>2.0</ele><time>2026-04-04T14:55:42Z</time></trkpt><trkpt lat="42.06485551021593" lon="14.779873006900573"><ele>2.0</ele><time>2026-04-04T14:55:48Z</time></trkpt><trkpt lat="42.06481571914132" lon="14.779963522228963"><ele>1.9999999999999998</ele><time>2026-04-04T14:55:54Z</time></trkpt><trkpt lat="42.06478158999609" lon="14.780049149876202"><ele>2.0</ele><time>2026-04-04T14:55:59Z</time></trkpt><trkpt lat="42.06477868940814" lon="14.780136336682428"><ele>2.0</ele><time>2026-04-04T14:56:04Z</time></trkpt><trkpt lat="42.064744837290924" lon="14.780212640074781"><ele>1.9999999999999998</ele><time>2026-04-04T14:56:09.999Z</time></trkpt><trkpt lat="42.0647074270427" lon="14.780291154224377"><ele>2.0</ele><time>2026-04-04T14:56:14.999Z</time></trkpt><trkpt lat="42.06467160345973" lon="14.780363347702783"><ele>2.0</ele><time>2026-04-04T14:56:19.999Z</time></trkpt><trkpt lat="42.064631886885216" lon="14.78043073914356"><ele>2.142857142857143</ele><time>2026-04-04T14:56:25Z</time></trkpt><trkpt lat="42.06460193761144" lon="14.780506996820616"><ele>2.2857142857142856</ele><time>2026-04-04T14:56:30Z</time></trkpt><trkpt lat="42.06457338229729" lon="14.78059948028031"><ele>2.4285714285714284</ele><time>2026-04-04T14:56:36Z</time></trkpt><trkpt lat="42.064544218757085" lon="14.780677658001439"><ele>2.571428571428571</ele><time>2026-04-04T14:56:41Z</time></trkpt><trkpt lat="42.06451675619823" lon="14.780755434863092"><ele>2.7142857142857144</ele><time>2026-04-04T14:56:46Z</time></trkpt><trkpt lat="42.06448355688171" lon="14.780846160763428"><ele>2.8571428571428568</ele><time>2026-04-04T14:56:52Z</time></trkpt><trkpt lat="42.064448929762555" lon="14.780936202982893"><ele>3.0</ele><time>2026-04-04T14:56:57Z</time></trkpt><trkpt lat="42.06440669948813" lon="14.781024272196376"><ele>2.9999999999999996</ele><time>2026-04-04T14:57:02Z</time></trkpt><trkpt lat="42.06437415123116" lon="14.781109796762225"><ele>3.0</ele><time>2026-04-04T14:57:07Z</time></trkpt><trkpt lat="42.064346322772735" lon="14.781186548872986"><ele>3.0</ele><time>2026-04-04T14:57:12Z</time></trkpt><trkpt lat="42.064309933229254" lon="14.781266025289257"><ele>3.0</ele><time>2026-04-04T14:57:18Z</time></trkpt><trkpt lat="42.06427545161797" lon="14.781341045037106"><ele>3.0</ele><time>2026-04-04T14:57:22Z</time></trkpt><trkpt lat="42.064239950512594" lon="14.78142334316934"><ele>2.9999999999999996</ele><time>2026-04-04T14:57:27Z</time></trkpt><trkpt lat="42.064212898770336" lon="14.78150772108985"><ele>3.0</ele><time>2026-04-04T14:57:32Z</time></trkpt><trkpt lat="42.06419594834728" lon="14.78159611492324"><ele>2.9999999999999996</ele><time>2026-04-04T14:57:37Z</time></trkpt><trkpt lat="42.064175237212794" lon="14.781677277415053"><ele>3.0</ele><time>2026-04-04T14:57:42Z</time></trkpt><trkpt lat="42.06416072296934" lon="14.781765970344296"><ele>3.0</ele><time>2026-04-04T14:57:47Z</time></trkpt><trkpt lat="42.0641274213511" lon="14.781844171652114"><ele>3.0</ele><time>2026-04-04T14:57:52Z</time></trkpt><trkpt lat="42.06410141055666" lon="14.781934915487415"><ele>3.0</ele><time>2026-04-04T14:57:57Z</time></trkpt><trkpt lat="42.064095068434696" lon="14.782020874375878"><ele>2.9999999999999996</ele><time>2026-04-04T14:58:02Z</time></trkpt><trkpt lat="42.0641003919136" lon="14.78211008530774"><ele>3.0</ele><time>2026-04-04T14:58:07Z</time></trkpt><trkpt lat="42.064142319094636" lon="14.782174299411396"><ele>2.9999999999999996</ele><time>2026-04-04T14:58:11.999Z</time></trkpt><trkpt lat="42.06419719148875" lon="14.782230652667817"><ele>3.0</ele><time>2026-04-04T14:58:16.999Z</time></trkpt><trkpt lat="42.064259289819" lon="14.782247583834247"><ele>3.0</ele><time>2026-04-04T14:58:21.999Z</time></trkpt><trkpt lat="42.0643249065122" lon="14.782261722036136"><ele>3.0</ele><time>2026-04-04T14:58:26.999Z</time></trkpt><trkpt lat="42.064396189245485" lon="14.782288801671788"><ele>3.0</ele><time>2026-04-04T14:58:32.999Z</time></trkpt><trkpt lat="42.06444107223523" lon="14.782354485176395"><ele>2.9999999999999996</ele><time>2026-04-04T14:58:37.999Z</time></trkpt><trkpt lat="42.064426577681544" lon="14.782452568882418"><ele>3.0</ele><time>2026-04-04T14:58:43Z</time></trkpt><trkpt lat="42.06439176298403" lon="14.782528428119068"><ele>2.9999999999999996</ele><time>2026-04-04T14:58:48Z</time></trkpt><trkpt lat="42.06432773532194" lon="14.782516881834656"><ele>3.0</ele><time>2026-04-04T14:58:53Z</time></trkpt><trkpt lat="42.06426786060352" lon="14.782480000964538"><ele>3.0</ele><time>2026-04-04T14:58:58Z</time></trkpt><trkpt lat="42.064206485670645" lon="14.78246063556113"><ele>3.0</ele><time>2026-04-04T14:59:03Z</time></trkpt><trkpt lat="42.06413946000964" lon="14.782441252613728"><ele>3.0</ele><time>2026-04-04T14:59:08Z</time></trkpt><trkpt lat="42.0640755934462" lon="14.782439215759526"><ele>2.9999999999999996</ele><time>2026-04-04T14:59:13Z</time></trkpt><trkpt lat="42.06401025089894" lon="14.78247051263186"><ele>3.0</ele><time>2026-04-04T14:59:18Z</time></trkpt><trkpt lat="42.063950711636146" lon="14.782518117493959"><ele>2.8571428571428568</ele><time>2026-04-04T14:59:23Z</time></trkpt><trkpt lat="42.06390448839431" lon="14.782578090881236"><ele>2.7142857142857144</ele><time>2026-04-04T14:59:28Z</time></trkpt><trkpt lat="42.063846665810736" lon="14.782636564712595"><ele>2.571428571428571</ele><time>2026-04-04T14:59:33Z</time></trkpt><trkpt lat="42.06380437734139" lon="14.782700902072635"><ele>2.4285714285714284</ele><time>2026-04-04T14:59:38Z</time></trkpt><trkpt lat="42.06377513836629" lon="14.78278582410947"><ele>2.2857142857142856</ele><time>2026-04-04T14:59:43Z</time></trkpt><trkpt lat="42.063746850741424" lon="14.782863422873612"><ele>2.142857142857143</ele><time>2026-04-04T14:59:48Z</time></trkpt><trkpt lat="42.06371301356299" lon="14.782942890233434"><ele>2.0</ele><time>2026-04-04T14:59:54Z</time></trkpt><trkpt lat="42.06366939179847" lon="14.783022898188495"><ele>2.0</ele><time>2026-04-04T14:59:59Z</time></trkpt><trkpt lat="42.06364703643714" lon="14.783123347166454"><ele>1.9999999999999998</ele><time>2026-04-04T15:00:04Z</time></trkpt><trkpt lat="42.06362222863409" lon="14.783204644582208"><ele>2.0</ele><time>2026-04-04T15:00:09Z</time></trkpt><trkpt lat="42.06359366209757" lon="14.783283525795405"><ele>2.0</ele><time>2026-04-04T15:00:14Z</time></trkpt><trkpt lat="42.06356014438656" lon="14.783379072428595"><ele>1.9999999999999998</ele><time>2026-04-04T15:00:19.999Z</time></trkpt><trkpt lat="42.063531646379644" lon="14.78345850601935"><ele>2.0</ele><time>2026-04-04T15:00:24.999Z</time></trkpt><trkpt lat="42.06350149909436" lon="14.783538711344338"><ele>2.0</ele><time>2026-04-04T15:00:29.999Z</time></trkpt><trkpt lat="42.063467757940835" lon="14.783620628040385"><ele>2.0</ele><time>2026-04-04T15:00:35Z</time></trkpt><trkpt lat="42.06343806310503" lon="14.783701147208296"><ele>1.9999999999999998</ele><time>2026-04-04T15:00:40Z</time></trkpt><trkpt lat="42.0634132220133" lon="14.78378362783845"><ele>2.0</ele><time>2026-04-04T15:00:45Z</time></trkpt><trkpt lat="42.06340796859235" lon="14.783884296663619"><ele>2.0</ele><time>2026-04-04T15:00:51Z</time></trkpt><trkpt lat="42.06340869868473" lon="14.783971059687923"><ele>1.9999999999999998</ele><time>2026-04-04T15:00:56Z</time></trkpt><trkpt lat="42.06339062424635" lon="14.784067764302884"><ele>2.0</ele><time>2026-04-04T15:01:02Z</time></trkpt><trkpt lat="42.06337083834305" lon="14.784149156846008"><ele>2.0</ele><time>2026-04-04T15:01:07Z</time></trkpt><trkpt lat="42.06341514481986" lon="14.784222440841782"><ele>2.0</ele><time>2026-04-04T15:01:12Z</time></trkpt><trkpt lat="42.06346944458203" lon="14.784271528829636"><ele>1.9999999999999998</ele><time>2026-04-04T15:01:17Z</time></trkpt><trkpt lat="42.0635236354827" lon="14.784321689341729"><ele>2.0</ele><time>2026-04-04T15:01:22Z</time></trkpt><trkpt lat="42.06358130018528" lon="14.78438978794878"><ele>2.0</ele><time>2026-04-04T15:01:28Z</time></trkpt><trkpt lat="42.06363356216807" lon="14.784442099209596"><ele>1.9999999999999998</ele><time>2026-04-04T15:01:33Z</time></trkpt><trkpt lat="42.06369211651867" lon="14.784491222612742"><ele>2.0</ele><time>2026-04-04T15:01:38Z</time></trkpt><trkpt lat="42.06375302077584" lon="14.784538598227293"><ele>2.0</ele><time>2026-04-04T15:01:43Z</time></trkpt><trkpt lat="42.063810365672744" lon="14.784593206582754"><ele>2.0</ele><time>2026-04-04T15:01:48Z</time></trkpt><trkpt lat="42.06386819378352" lon="14.78465064544898"><ele>1.9999999999999998</ele><time>2026-04-04T15:01:53Z</time></trkpt><trkpt lat="42.063922703218864" lon="14.784693842897276"><ele>2.0</ele><time>2026-04-04T15:01:58Z</time></trkpt><trkpt lat="42.06398841377596" lon="14.78473494057165"><ele>2.0</ele><time>2026-04-04T15:02:04Z</time></trkpt><trkpt lat="42.06404628345315" lon="14.784785566831657"><ele>1.9999999999999998</ele><time>2026-04-04T15:02:10Z</time></trkpt><trkpt lat="42.06410355399404" lon="14.784831615068406"><ele>2.0</ele><time>2026-04-04T15:02:15Z</time></trkpt><trkpt lat="42.06417093358704" lon="14.784871084135228"><ele>2.0</ele><time>2026-04-04T15:02:20Z</time></trkpt><trkpt lat="42.064233167717866" lon="14.784896991016735"><ele>2.0</ele><time>2026-04-04T15:02:25Z</time></trkpt><trkpt lat="42.06430552236232" lon="14.784919712660447"><ele>2.0</ele><time>2026-04-04T15:02:33Z</time></trkpt><trkpt lat="42.06436224235417" lon="14.784879948666664"><ele>2.0</ele><time>2026-04-04T15:03:04Z</time></trkpt></trkseg></trk></gpx>